<?xml version="1.0" encoding="UTF-8" standalone="no" ?>
<gpx xmlns="http://www.topografix.com/GPX/1/1" xmlns:xsi="http://www.w3.org/2001/XMLSchema-instance" xsi:schemaLocation="http://www.topografix.com/GPX/1/1 http://www.topografix.com/GPX/1/1/gpx.xsd" version="1.1" creator="VisuGPX - https://www.visugpx.com">
  <metadata>
    <name>Neuville - Cergy MA-Rando-2019-07-23</name>
  </metadata>
  <trk>
    <name><![CDATA[MA-Rando-2019-07-23-195738]]></name>
    <trkseg>
      <trkpt lat="49.01409" lon="2.05799">
        <ele>23</ele>
        <time>2019-07-23T17:31:06Z</time>
      </trkpt>
      <trkpt lat="49.01409" lon="2.05784">
        <ele>23</ele>
        <time>2019-07-23T17:31:22Z</time>
      </trkpt>
      <trkpt lat="49.01404" lon="2.05773">
        <ele>23</ele>
        <time>2019-07-23T17:31:32Z</time>
      </trkpt>
      <trkpt lat="49.01401" lon="2.05758">
        <ele>22</ele>
        <time>2019-07-23T17:31:44Z</time>
      </trkpt>
      <trkpt lat="49.01409" lon="2.05751">
        <ele>22</ele>
        <time>2019-07-23T17:31:58Z</time>
      </trkpt>
      <trkpt lat="49.01404" lon="2.05739">
        <ele>21</ele>
        <time>2019-07-23T17:32:14Z</time>
      </trkpt>
      <trkpt lat="49.01398" lon="2.05727">
        <ele>21</ele>
        <time>2019-07-23T17:32:25Z</time>
      </trkpt>
      <trkpt lat="49.01391" lon="2.05719">
        <ele>21</ele>
        <time>2019-07-23T17:32:32Z</time>
      </trkpt>
      <trkpt lat="49.01385" lon="2.05708">
        <ele>21</ele>
        <time>2019-07-23T17:32:41Z</time>
      </trkpt>
      <trkpt lat="49.0138" lon="2.05695">
        <ele>21</ele>
        <time>2019-07-23T17:32:51Z</time>
      </trkpt>
      <trkpt lat="49.01375" lon="2.05681">
        <ele>22</ele>
        <time>2019-07-23T17:32:59Z</time>
      </trkpt>
      <trkpt lat="49.01369" lon="2.05669">
        <ele>22</ele>
        <time>2019-07-23T17:33:07Z</time>
      </trkpt>
      <trkpt lat="49.01363" lon="2.05656">
        <ele>22</ele>
        <time>2019-07-23T17:33:15Z</time>
      </trkpt>
      <trkpt lat="49.01357" lon="2.05644">
        <ele>22</ele>
        <time>2019-07-23T17:33:23Z</time>
      </trkpt>
      <trkpt lat="49.01351" lon="2.05633">
        <ele>22</ele>
        <time>2019-07-23T17:33:32Z</time>
      </trkpt>
      <trkpt lat="49.01347" lon="2.0562">
        <ele>22</ele>
        <time>2019-07-23T17:33:42Z</time>
      </trkpt>
      <trkpt lat="49.01339" lon="2.05614">
        <ele>22</ele>
        <time>2019-07-23T17:33:55Z</time>
      </trkpt>
      <trkpt lat="49.01332" lon="2.05624">
        <ele>24</ele>
        <time>2019-07-23T17:34:10Z</time>
      </trkpt>
      <trkpt lat="49.01333" lon="2.05638">
        <ele>24</ele>
        <time>2019-07-23T17:34:31Z</time>
      </trkpt>
      <trkpt lat="49.01339" lon="2.05649">
        <ele>22</ele>
        <time>2019-07-23T17:34:40Z</time>
      </trkpt>
      <trkpt lat="49.01348" lon="2.05647">
        <ele>22</ele>
        <time>2019-07-23T17:34:49Z</time>
      </trkpt>
      <trkpt lat="49.0136" lon="2.05637">
        <ele>22</ele>
        <time>2019-07-23T17:35:00Z</time>
      </trkpt>
      <trkpt lat="49.01367" lon="2.05623">
        <ele>21</ele>
        <time>2019-07-23T17:35:09Z</time>
      </trkpt>
      <trkpt lat="49.01374" lon="2.05614">
        <ele>21</ele>
        <time>2019-07-23T17:35:14Z</time>
      </trkpt>
      <trkpt lat="49.01381" lon="2.05606">
        <ele>21</ele>
        <time>2019-07-23T17:35:21Z</time>
      </trkpt>
      <trkpt lat="49.01389" lon="2.05598">
        <ele>21</ele>
        <time>2019-07-23T17:35:29Z</time>
      </trkpt>
      <trkpt lat="49.01395" lon="2.05587">
        <ele>20</ele>
        <time>2019-07-23T17:35:42Z</time>
      </trkpt>
      <trkpt lat="49.014" lon="2.05576">
        <ele>20</ele>
        <time>2019-07-23T17:35:51Z</time>
      </trkpt>
      <trkpt lat="49.01403" lon="2.05562">
        <ele>21</ele>
        <time>2019-07-23T17:35:59Z</time>
      </trkpt>
      <trkpt lat="49.01409" lon="2.05549">
        <ele>21</ele>
        <time>2019-07-23T17:36:08Z</time>
      </trkpt>
      <trkpt lat="49.01415" lon="2.05538">
        <ele>21</ele>
        <time>2019-07-23T17:36:20Z</time>
      </trkpt>
      <trkpt lat="49.01423" lon="2.05524">
        <ele>21</ele>
        <time>2019-07-23T17:36:31Z</time>
      </trkpt>
      <trkpt lat="49.01429" lon="2.05514">
        <ele>21</ele>
        <time>2019-07-23T17:36:36Z</time>
      </trkpt>
      <trkpt lat="49.01435" lon="2.05503">
        <ele>21</ele>
        <time>2019-07-23T17:36:45Z</time>
      </trkpt>
      <trkpt lat="49.01442" lon="2.05492">
        <ele>22</ele>
        <time>2019-07-23T17:36:53Z</time>
      </trkpt>
      <trkpt lat="49.01449" lon="2.05483">
        <ele>22</ele>
        <time>2019-07-23T17:36:59Z</time>
      </trkpt>
      <trkpt lat="49.01454" lon="2.05471">
        <ele>22</ele>
        <time>2019-07-23T17:37:13Z</time>
      </trkpt>
      <trkpt lat="49.0146" lon="2.05458">
        <ele>22</ele>
        <time>2019-07-23T17:37:19Z</time>
      </trkpt>
      <trkpt lat="49.01463" lon="2.05442">
        <ele>22</ele>
        <time>2019-07-23T17:37:25Z</time>
      </trkpt>
      <trkpt lat="49.01467" lon="2.05429">
        <ele>22</ele>
        <time>2019-07-23T17:37:30Z</time>
      </trkpt>
      <trkpt lat="49.01471" lon="2.05416">
        <ele>22</ele>
        <time>2019-07-23T17:37:38Z</time>
      </trkpt>
      <trkpt lat="49.01473" lon="2.05401">
        <ele>22</ele>
        <time>2019-07-23T17:37:46Z</time>
      </trkpt>
      <trkpt lat="49.01476" lon="2.05387">
        <ele>22</ele>
        <time>2019-07-23T17:37:54Z</time>
      </trkpt>
      <trkpt lat="49.01482" lon="2.05375">
        <ele>22</ele>
        <time>2019-07-23T17:38:05Z</time>
      </trkpt>
      <trkpt lat="49.01489" lon="2.05365">
        <ele>22</ele>
        <time>2019-07-23T17:38:13Z</time>
      </trkpt>
      <trkpt lat="49.01497" lon="2.05358">
        <ele>21</ele>
        <time>2019-07-23T17:38:18Z</time>
      </trkpt>
      <trkpt lat="49.01501" lon="2.05345">
        <ele>20</ele>
        <time>2019-07-23T17:38:31Z</time>
      </trkpt>
      <trkpt lat="49.01507" lon="2.05334">
        <ele>20</ele>
        <time>2019-07-23T17:38:44Z</time>
      </trkpt>
      <trkpt lat="49.01516" lon="2.05323">
        <ele>20</ele>
        <time>2019-07-23T17:38:51Z</time>
      </trkpt>
      <trkpt lat="49.01523" lon="2.05311">
        <ele>21</ele>
        <time>2019-07-23T17:38:58Z</time>
      </trkpt>
      <trkpt lat="49.01528" lon="2.053">
        <ele>21</ele>
        <time>2019-07-23T17:39:07Z</time>
      </trkpt>
      <trkpt lat="49.01536" lon="2.0529">
        <ele>21</ele>
        <time>2019-07-23T17:39:14Z</time>
      </trkpt>
      <trkpt lat="49.01543" lon="2.05279">
        <ele>21</ele>
        <time>2019-07-23T17:39:24Z</time>
      </trkpt>
      <trkpt lat="49.01551" lon="2.05267">
        <ele>21</ele>
        <time>2019-07-23T17:39:29Z</time>
      </trkpt>
      <trkpt lat="49.01559" lon="2.05259">
        <ele>21</ele>
        <time>2019-07-23T17:39:35Z</time>
      </trkpt>
      <trkpt lat="49.01566" lon="2.0525">
        <ele>21</ele>
        <time>2019-07-23T17:39:42Z</time>
      </trkpt>
      <trkpt lat="49.01572" lon="2.05238">
        <ele>21</ele>
        <time>2019-07-23T17:39:51Z</time>
      </trkpt>
      <trkpt lat="49.0158" lon="2.0523">
        <ele>21</ele>
        <time>2019-07-23T17:40:01Z</time>
      </trkpt>
      <trkpt lat="49.01585" lon="2.05219">
        <ele>22</ele>
        <time>2019-07-23T17:40:13Z</time>
      </trkpt>
      <trkpt lat="49.01592" lon="2.05208">
        <ele>22</ele>
        <time>2019-07-23T17:40:20Z</time>
      </trkpt>
      <trkpt lat="49.01599" lon="2.05198">
        <ele>22</ele>
        <time>2019-07-23T17:40:32Z</time>
      </trkpt>
      <trkpt lat="49.01606" lon="2.05188">
        <ele>22</ele>
        <time>2019-07-23T17:40:38Z</time>
      </trkpt>
      <trkpt lat="49.01615" lon="2.05175">
        <ele>23</ele>
        <time>2019-07-23T17:40:45Z</time>
      </trkpt>
      <trkpt lat="49.01621" lon="2.05163">
        <ele>24</ele>
        <time>2019-07-23T17:40:49Z</time>
      </trkpt>
      <trkpt lat="49.01627" lon="2.05153">
        <ele>24</ele>
        <time>2019-07-23T17:40:56Z</time>
      </trkpt>
      <trkpt lat="49.01637" lon="2.05146">
        <ele>24</ele>
        <time>2019-07-23T17:41:02Z</time>
      </trkpt>
      <trkpt lat="49.01645" lon="2.05137">
        <ele>24</ele>
        <time>2019-07-23T17:41:09Z</time>
      </trkpt>
      <trkpt lat="49.01652" lon="2.05128">
        <ele>24</ele>
        <time>2019-07-23T17:41:17Z</time>
      </trkpt>
      <trkpt lat="49.01658" lon="2.05116">
        <ele>25</ele>
        <time>2019-07-23T17:41:24Z</time>
      </trkpt>
      <trkpt lat="49.01664" lon="2.05106">
        <ele>25</ele>
        <time>2019-07-23T17:41:30Z</time>
      </trkpt>
      <trkpt lat="49.0167" lon="2.05095">
        <ele>25</ele>
        <time>2019-07-23T17:41:38Z</time>
      </trkpt>
      <trkpt lat="49.01675" lon="2.05082">
        <ele>26</ele>
        <time>2019-07-23T17:41:44Z</time>
      </trkpt>
      <trkpt lat="49.01678" lon="2.05069">
        <ele>26</ele>
        <time>2019-07-23T17:41:50Z</time>
      </trkpt>
      <trkpt lat="49.01679" lon="2.05055">
        <ele>26</ele>
        <time>2019-07-23T17:42:01Z</time>
      </trkpt>
      <trkpt lat="49.01686" lon="2.05044">
        <ele>26</ele>
        <time>2019-07-23T17:42:12Z</time>
      </trkpt>
      <trkpt lat="49.01691" lon="2.05031">
        <ele>26</ele>
        <time>2019-07-23T17:42:16Z</time>
      </trkpt>
      <trkpt lat="49.01698" lon="2.05019">
        <ele>26</ele>
        <time>2019-07-23T17:42:21Z</time>
      </trkpt>
      <trkpt lat="49.01705" lon="2.05009">
        <ele>26</ele>
        <time>2019-07-23T17:42:36Z</time>
      </trkpt>
      <trkpt lat="49.01711" lon="2.04998">
        <ele>28</ele>
        <time>2019-07-23T17:42:49Z</time>
      </trkpt>
      <trkpt lat="49.0172" lon="2.0499">
        <ele>28</ele>
        <time>2019-07-23T17:42:55Z</time>
      </trkpt>
      <trkpt lat="49.01729" lon="2.04983">
        <ele>28</ele>
        <time>2019-07-23T17:42:59Z</time>
      </trkpt>
      <trkpt lat="49.01738" lon="2.04977">
        <ele>28</ele>
        <time>2019-07-23T17:43:05Z</time>
      </trkpt>
      <trkpt lat="49.01745" lon="2.04967">
        <ele>28</ele>
        <time>2019-07-23T17:43:10Z</time>
      </trkpt>
      <trkpt lat="49.01753" lon="2.04958">
        <ele>26</ele>
        <time>2019-07-23T17:43:22Z</time>
      </trkpt>
      <trkpt lat="49.01757" lon="2.04945">
        <ele>26</ele>
        <time>2019-07-23T17:43:32Z</time>
      </trkpt>
      <trkpt lat="49.01766" lon="2.04936">
        <ele>27</ele>
        <time>2019-07-23T17:43:38Z</time>
      </trkpt>
      <trkpt lat="49.01772" lon="2.04926">
        <ele>27</ele>
        <time>2019-07-23T17:43:47Z</time>
      </trkpt>
      <trkpt lat="49.01779" lon="2.04916">
        <ele>28</ele>
        <time>2019-07-23T17:43:59Z</time>
      </trkpt>
      <trkpt lat="49.01787" lon="2.04908">
        <ele>27</ele>
        <time>2019-07-23T17:44:05Z</time>
      </trkpt>
      <trkpt lat="49.01794" lon="2.04896">
        <ele>27</ele>
        <time>2019-07-23T17:44:16Z</time>
      </trkpt>
      <trkpt lat="49.01802" lon="2.04887">
        <ele>27</ele>
        <time>2019-07-23T17:44:22Z</time>
      </trkpt>
      <trkpt lat="49.0181" lon="2.04878">
        <ele>27</ele>
        <time>2019-07-23T17:44:30Z</time>
      </trkpt>
      <trkpt lat="49.01817" lon="2.04866">
        <ele>27</ele>
        <time>2019-07-23T17:44:36Z</time>
      </trkpt>
      <trkpt lat="49.01821" lon="2.04853">
        <ele>27</ele>
        <time>2019-07-23T17:44:51Z</time>
      </trkpt>
      <trkpt lat="49.01826" lon="2.04841">
        <ele>28</ele>
        <time>2019-07-23T17:44:55Z</time>
      </trkpt>
      <trkpt lat="49.01831" lon="2.0483">
        <ele>28</ele>
        <time>2019-07-23T17:44:59Z</time>
      </trkpt>
      <trkpt lat="49.0184" lon="2.04821">
        <ele>28</ele>
        <time>2019-07-23T17:45:10Z</time>
      </trkpt>
      <trkpt lat="49.01848" lon="2.04813">
        <ele>28</ele>
        <time>2019-07-23T17:45:23Z</time>
      </trkpt>
      <trkpt lat="49.01856" lon="2.04804">
        <ele>28</ele>
        <time>2019-07-23T17:45:32Z</time>
      </trkpt>
      <trkpt lat="49.01863" lon="2.04793">
        <ele>28</ele>
        <time>2019-07-23T17:45:37Z</time>
      </trkpt>
      <trkpt lat="49.01869" lon="2.04782">
        <ele>28</ele>
        <time>2019-07-23T17:45:46Z</time>
      </trkpt>
      <trkpt lat="49.01876" lon="2.04769">
        <ele>28</ele>
        <time>2019-07-23T17:45:52Z</time>
      </trkpt>
      <trkpt lat="49.01883" lon="2.04759">
        <ele>28</ele>
        <time>2019-07-23T17:45:58Z</time>
      </trkpt>
      <trkpt lat="49.01892" lon="2.04747">
        <ele>28</ele>
        <time>2019-07-23T17:46:05Z</time>
      </trkpt>
      <trkpt lat="49.019" lon="2.04738">
        <ele>28</ele>
        <time>2019-07-23T17:46:13Z</time>
      </trkpt>
      <trkpt lat="49.01908" lon="2.04731">
        <ele>27</ele>
        <time>2019-07-23T17:46:22Z</time>
      </trkpt>
      <trkpt lat="49.01919" lon="2.04727">
        <ele>25</ele>
        <time>2019-07-23T17:46:36Z</time>
      </trkpt>
      <trkpt lat="49.01927" lon="2.04719">
        <ele>25</ele>
        <time>2019-07-23T17:46:40Z</time>
      </trkpt>
      <trkpt lat="49.01934" lon="2.0471">
        <ele>24</ele>
        <time>2019-07-23T17:46:49Z</time>
      </trkpt>
      <trkpt lat="49.01938" lon="2.04698">
        <ele>24</ele>
        <time>2019-07-23T17:46:56Z</time>
      </trkpt>
      <trkpt lat="49.01946" lon="2.04689">
        <ele>24</ele>
        <time>2019-07-23T17:47:03Z</time>
      </trkpt>
      <trkpt lat="49.01953" lon="2.04681">
        <ele>24</ele>
        <time>2019-07-23T17:47:12Z</time>
      </trkpt>
      <trkpt lat="49.01961" lon="2.04673">
        <ele>23</ele>
        <time>2019-07-23T17:47:19Z</time>
      </trkpt>
      <trkpt lat="49.01969" lon="2.04666">
        <ele>22</ele>
        <time>2019-07-23T17:47:26Z</time>
      </trkpt>
      <trkpt lat="49.01976" lon="2.04657">
        <ele>22</ele>
        <time>2019-07-23T17:47:31Z</time>
      </trkpt>
      <trkpt lat="49.0198" lon="2.04644">
        <ele>22</ele>
        <time>2019-07-23T17:47:36Z</time>
      </trkpt>
      <trkpt lat="49.01989" lon="2.0464">
        <ele>22</ele>
        <time>2019-07-23T17:47:46Z</time>
      </trkpt>
      <trkpt lat="49.01996" lon="2.04634">
        <ele>21</ele>
        <time>2019-07-23T17:47:53Z</time>
      </trkpt>
      <trkpt lat="49.02005" lon="2.04624">
        <ele>21</ele>
        <time>2019-07-23T17:47:59Z</time>
      </trkpt>
      <trkpt lat="49.02014" lon="2.04616">
        <ele>21</ele>
        <time>2019-07-23T17:48:09Z</time>
      </trkpt>
      <trkpt lat="49.02022" lon="2.04606">
        <ele>21</ele>
        <time>2019-07-23T17:48:18Z</time>
      </trkpt>
      <trkpt lat="49.02029" lon="2.04597">
        <ele>21</ele>
        <time>2019-07-23T17:48:25Z</time>
      </trkpt>
      <trkpt lat="49.02036" lon="2.04587">
        <ele>21</ele>
        <time>2019-07-23T17:48:32Z</time>
      </trkpt>
      <trkpt lat="49.02042" lon="2.04577">
        <ele>21</ele>
        <time>2019-07-23T17:48:41Z</time>
      </trkpt>
      <trkpt lat="49.0205" lon="2.04569">
        <ele>21</ele>
        <time>2019-07-23T17:48:48Z</time>
      </trkpt>
      <trkpt lat="49.02059" lon="2.04564">
        <ele>21</ele>
        <time>2019-07-23T17:48:54Z</time>
      </trkpt>
      <trkpt lat="49.02065" lon="2.04549">
        <ele>21</ele>
        <time>2019-07-23T17:49:02Z</time>
      </trkpt>
      <trkpt lat="49.02065" lon="2.04534">
        <ele>21</ele>
        <time>2019-07-23T17:49:10Z</time>
      </trkpt>
      <trkpt lat="49.02059" lon="2.04521">
        <ele>21</ele>
        <time>2019-07-23T17:49:18Z</time>
      </trkpt>
      <trkpt lat="49.02055" lon="2.04508">
        <ele>21</ele>
        <time>2019-07-23T17:49:27Z</time>
      </trkpt>
      <trkpt lat="49.02053" lon="2.04494">
        <ele>21</ele>
        <time>2019-07-23T17:49:38Z</time>
      </trkpt>
      <trkpt lat="49.02049" lon="2.04481">
        <ele>21</ele>
        <time>2019-07-23T17:49:44Z</time>
      </trkpt>
      <trkpt lat="49.02045" lon="2.04467">
        <ele>21</ele>
        <time>2019-07-23T17:49:52Z</time>
      </trkpt>
      <trkpt lat="49.0204" lon="2.04455">
        <ele>21</ele>
        <time>2019-07-23T17:50:00Z</time>
      </trkpt>
      <trkpt lat="49.02035" lon="2.04443">
        <ele>21</ele>
        <time>2019-07-23T17:50:07Z</time>
      </trkpt>
      <trkpt lat="49.02029" lon="2.04431">
        <ele>21</ele>
        <time>2019-07-23T17:50:13Z</time>
      </trkpt>
      <trkpt lat="49.02025" lon="2.04419">
        <ele>21</ele>
        <time>2019-07-23T17:50:20Z</time>
      </trkpt>
      <trkpt lat="49.0202" lon="2.04406">
        <ele>21</ele>
        <time>2019-07-23T17:50:28Z</time>
      </trkpt>
      <trkpt lat="49.02015" lon="2.04394">
        <ele>21</ele>
        <time>2019-07-23T17:50:36Z</time>
      </trkpt>
      <trkpt lat="49.02011" lon="2.04381">
        <ele>21</ele>
        <time>2019-07-23T17:50:43Z</time>
      </trkpt>
      <trkpt lat="49.02009" lon="2.04367">
        <ele>22</ele>
        <time>2019-07-23T17:50:51Z</time>
      </trkpt>
      <trkpt lat="49.02005" lon="2.04354">
        <ele>22</ele>
        <time>2019-07-23T17:50:59Z</time>
      </trkpt>
      <trkpt lat="49.02" lon="2.0434">
        <ele>22</ele>
        <time>2019-07-23T17:51:06Z</time>
      </trkpt>
      <trkpt lat="49.01995" lon="2.04327">
        <ele>23</ele>
        <time>2019-07-23T17:51:13Z</time>
      </trkpt>
      <trkpt lat="49.01991" lon="2.04315">
        <ele>24</ele>
        <time>2019-07-23T17:51:20Z</time>
      </trkpt>
      <trkpt lat="49.01987" lon="2.04302">
        <ele>25</ele>
        <time>2019-07-23T17:51:26Z</time>
      </trkpt>
      <trkpt lat="49.01984" lon="2.04289">
        <ele>25</ele>
        <time>2019-07-23T17:51:32Z</time>
      </trkpt>
      <trkpt lat="49.01982" lon="2.04275">
        <ele>26</ele>
        <time>2019-07-23T17:51:40Z</time>
      </trkpt>
      <trkpt lat="49.01979" lon="2.04261">
        <ele>26</ele>
        <time>2019-07-23T17:51:50Z</time>
      </trkpt>
      <trkpt lat="49.01976" lon="2.04246">
        <ele>27</ele>
        <time>2019-07-23T17:52:00Z</time>
      </trkpt>
      <trkpt lat="49.01971" lon="2.04234">
        <ele>28</ele>
        <time>2019-07-23T17:52:08Z</time>
      </trkpt>
      <trkpt lat="49.01972" lon="2.04219">
        <ele>28</ele>
        <time>2019-07-23T17:52:18Z</time>
      </trkpt>
      <trkpt lat="49.01969" lon="2.04206">
        <ele>29</ele>
        <time>2019-07-23T17:52:25Z</time>
      </trkpt>
      <trkpt lat="49.01964" lon="2.04194">
        <ele>29</ele>
        <time>2019-07-23T17:52:31Z</time>
      </trkpt>
      <trkpt lat="49.01956" lon="2.04186">
        <ele>29</ele>
        <time>2019-07-23T17:52:39Z</time>
      </trkpt>
      <trkpt lat="49.01965" lon="2.04188">
        <ele>29</ele>
        <time>2019-07-23T17:52:49Z</time>
      </trkpt>
      <trkpt lat="49.01976" lon="2.04188">
        <ele>28</ele>
        <time>2019-07-23T17:52:57Z</time>
      </trkpt>
      <trkpt lat="49.01985" lon="2.04184">
        <ele>28</ele>
        <time>2019-07-23T17:53:06Z</time>
      </trkpt>
      <trkpt lat="49.01993" lon="2.04176">
        <ele>28</ele>
        <time>2019-07-23T17:53:13Z</time>
      </trkpt>
      <trkpt lat="49.02003" lon="2.0417">
        <ele>27</ele>
        <time>2019-07-23T17:53:18Z</time>
      </trkpt>
      <trkpt lat="49.02012" lon="2.04168">
        <ele>26</ele>
        <time>2019-07-23T17:53:29Z</time>
      </trkpt>
      <trkpt lat="49.02019" lon="2.04157">
        <ele>27</ele>
        <time>2019-07-23T17:53:35Z</time>
      </trkpt>
      <trkpt lat="49.02029" lon="2.04153">
        <ele>27</ele>
        <time>2019-07-23T17:53:42Z</time>
      </trkpt>
      <trkpt lat="49.02038" lon="2.04149">
        <ele>27</ele>
        <time>2019-07-23T17:53:50Z</time>
      </trkpt>
      <trkpt lat="49.02048" lon="2.04144">
        <ele>27</ele>
        <time>2019-07-23T17:53:59Z</time>
      </trkpt>
      <trkpt lat="49.02058" lon="2.0414">
        <ele>27</ele>
        <time>2019-07-23T17:54:06Z</time>
      </trkpt>
      <trkpt lat="49.0207" lon="2.04145">
        <ele>27</ele>
        <time>2019-07-23T17:54:14Z</time>
      </trkpt>
      <trkpt lat="49.02079" lon="2.04144">
        <ele>26</ele>
        <time>2019-07-23T17:54:23Z</time>
      </trkpt>
      <trkpt lat="49.02089" lon="2.04142">
        <ele>25</ele>
        <time>2019-07-23T17:54:31Z</time>
      </trkpt>
      <trkpt lat="49.02095" lon="2.0413">
        <ele>26</ele>
        <time>2019-07-23T17:54:36Z</time>
      </trkpt>
      <trkpt lat="49.0209" lon="2.04115">
        <ele>27</ele>
        <time>2019-07-23T17:54:41Z</time>
      </trkpt>
      <trkpt lat="49.02088" lon="2.04101">
        <ele>27</ele>
        <time>2019-07-23T17:54:49Z</time>
      </trkpt>
      <trkpt lat="49.02083" lon="2.04087">
        <ele>29</ele>
        <time>2019-07-23T17:54:58Z</time>
      </trkpt>
      <trkpt lat="49.0209" lon="2.04078">
        <ele>30</ele>
        <time>2019-07-23T17:55:23Z</time>
      </trkpt>
      <trkpt lat="49.02095" lon="2.04067">
        <ele>31</ele>
        <time>2019-07-23T17:55:36Z</time>
      </trkpt>
      <trkpt lat="49.02087" lon="2.04057">
        <ele>31</ele>
        <time>2019-07-23T17:55:43Z</time>
      </trkpt>
      <trkpt lat="49.02084" lon="2.04044">
        <ele>33</ele>
        <time>2019-07-23T17:55:50Z</time>
      </trkpt>
      <trkpt lat="49.0208" lon="2.04031">
        <ele>35</ele>
        <time>2019-07-23T17:55:57Z</time>
      </trkpt>
      <trkpt lat="49.02083" lon="2.04018">
        <ele>35</ele>
        <time>2019-07-23T17:56:05Z</time>
      </trkpt>
      <trkpt lat="49.02089" lon="2.04005">
        <ele>37</ele>
        <time>2019-07-23T17:56:19Z</time>
      </trkpt>
      <trkpt lat="49.02096" lon="2.03996">
        <ele>40</ele>
        <time>2019-07-23T17:56:30Z</time>
      </trkpt>
      <trkpt lat="49.02105" lon="2.03991">
        <ele>40</ele>
        <time>2019-07-23T17:56:38Z</time>
      </trkpt>
      <trkpt lat="49.02114" lon="2.03985">
        <ele>40</ele>
        <time>2019-07-23T17:56:46Z</time>
      </trkpt>
      <trkpt lat="49.02123" lon="2.03979">
        <ele>40</ele>
        <time>2019-07-23T17:56:54Z</time>
      </trkpt>
      <trkpt lat="49.02132" lon="2.03972">
        <ele>40</ele>
        <time>2019-07-23T17:57:01Z</time>
      </trkpt>
      <trkpt lat="49.0214" lon="2.03964">
        <ele>40</ele>
        <time>2019-07-23T17:57:09Z</time>
      </trkpt>
      <trkpt lat="49.02148" lon="2.03956">
        <ele>40</ele>
        <time>2019-07-23T17:57:17Z</time>
      </trkpt>
      <trkpt lat="49.02156" lon="2.03947">
        <ele>40</ele>
        <time>2019-07-23T17:57:24Z</time>
      </trkpt>
      <trkpt lat="49.02165" lon="2.0394">
        <ele>40</ele>
        <time>2019-07-23T17:57:31Z</time>
      </trkpt>
      <trkpt lat="49.02172" lon="2.03932">
        <ele>37</ele>
        <time>2019-07-23T17:57:36Z</time>
      </trkpt>
      <trkpt lat="49.02181" lon="2.03925">
        <ele>37</ele>
        <time>2019-07-23T17:57:46Z</time>
      </trkpt>
      <trkpt lat="49.0219" lon="2.03918">
        <ele>37</ele>
        <time>2019-07-23T17:57:57Z</time>
      </trkpt>
      <trkpt lat="49.02199" lon="2.03917">
        <ele>36</ele>
        <time>2019-07-23T17:58:04Z</time>
      </trkpt>
      <trkpt lat="49.02207" lon="2.03913">
        <ele>40</ele>
        <time>2019-07-23T17:58:11Z</time>
      </trkpt>
      <trkpt lat="49.02215" lon="2.03905">
        <ele>40</ele>
        <time>2019-07-23T17:58:19Z</time>
      </trkpt>
      <trkpt lat="49.02222" lon="2.03895">
        <ele>40</ele>
        <time>2019-07-23T17:58:26Z</time>
      </trkpt>
      <trkpt lat="49.02229" lon="2.03886">
        <ele>40</ele>
        <time>2019-07-23T17:58:34Z</time>
      </trkpt>
      <trkpt lat="49.02235" lon="2.03875">
        <ele>41</ele>
        <time>2019-07-23T17:58:42Z</time>
      </trkpt>
      <trkpt lat="49.02239" lon="2.03863">
        <ele>41</ele>
        <time>2019-07-23T17:58:52Z</time>
      </trkpt>
      <trkpt lat="49.02245" lon="2.03851">
        <ele>42</ele>
        <time>2019-07-23T17:59:00Z</time>
      </trkpt>
      <trkpt lat="49.02249" lon="2.03838">
        <ele>42</ele>
        <time>2019-07-23T17:59:09Z</time>
      </trkpt>
      <trkpt lat="49.02257" lon="2.03829">
        <ele>42</ele>
        <time>2019-07-23T17:59:17Z</time>
      </trkpt>
      <trkpt lat="49.02265" lon="2.03821">
        <ele>42</ele>
        <time>2019-07-23T17:59:25Z</time>
      </trkpt>
      <trkpt lat="49.02272" lon="2.0381">
        <ele>43</ele>
        <time>2019-07-23T17:59:32Z</time>
      </trkpt>
      <trkpt lat="49.0228" lon="2.03802">
        <ele>43</ele>
        <time>2019-07-23T17:59:39Z</time>
      </trkpt>
      <trkpt lat="49.02288" lon="2.03793">
        <ele>43</ele>
        <time>2019-07-23T17:59:48Z</time>
      </trkpt>
      <trkpt lat="49.02296" lon="2.03786">
        <ele>43</ele>
        <time>2019-07-23T17:59:55Z</time>
      </trkpt>
      <trkpt lat="49.02304" lon="2.0378">
        <ele>43</ele>
        <time>2019-07-23T18:00:06Z</time>
      </trkpt>
      <trkpt lat="49.02312" lon="2.03771">
        <ele>43</ele>
        <time>2019-07-23T18:00:12Z</time>
      </trkpt>
      <trkpt lat="49.02321" lon="2.03763">
        <ele>43</ele>
        <time>2019-07-23T18:00:16Z</time>
      </trkpt>
      <trkpt lat="49.02329" lon="2.03759">
        <ele>44</ele>
        <time>2019-07-23T18:00:25Z</time>
      </trkpt>
      <trkpt lat="49.02339" lon="2.03753">
        <ele>43</ele>
        <time>2019-07-23T18:00:34Z</time>
      </trkpt>
      <trkpt lat="49.02345" lon="2.03741">
        <ele>45</ele>
        <time>2019-07-23T18:00:42Z</time>
      </trkpt>
      <trkpt lat="49.02352" lon="2.03731">
        <ele>45</ele>
        <time>2019-07-23T18:00:52Z</time>
      </trkpt>
      <trkpt lat="49.0236" lon="2.03724">
        <ele>45</ele>
        <time>2019-07-23T18:00:58Z</time>
      </trkpt>
      <trkpt lat="49.02367" lon="2.03714">
        <ele>45</ele>
        <time>2019-07-23T18:01:07Z</time>
      </trkpt>
      <trkpt lat="49.02376" lon="2.03708">
        <ele>45</ele>
        <time>2019-07-23T18:01:13Z</time>
      </trkpt>
      <trkpt lat="49.02385" lon="2.03703">
        <ele>45</ele>
        <time>2019-07-23T18:01:19Z</time>
      </trkpt>
      <trkpt lat="49.02394" lon="2.03697">
        <ele>46</ele>
        <time>2019-07-23T18:01:27Z</time>
      </trkpt>
      <trkpt lat="49.02402" lon="2.03692">
        <ele>46</ele>
        <time>2019-07-23T18:01:36Z</time>
      </trkpt>
      <trkpt lat="49.02411" lon="2.03686">
        <ele>46</ele>
        <time>2019-07-23T18:01:42Z</time>
      </trkpt>
      <trkpt lat="49.02415" lon="2.03672">
        <ele>47</ele>
        <time>2019-07-23T18:02:03Z</time>
      </trkpt>
      <trkpt lat="49.0242" lon="2.03661">
        <ele>47</ele>
        <time>2019-07-23T18:02:10Z</time>
      </trkpt>
      <trkpt lat="49.02429" lon="2.03657">
        <ele>47</ele>
        <time>2019-07-23T18:02:17Z</time>
      </trkpt>
      <trkpt lat="49.02438" lon="2.03651">
        <ele>46</ele>
        <time>2019-07-23T18:02:21Z</time>
      </trkpt>
      <trkpt lat="49.02442" lon="2.03637">
        <ele>46</ele>
        <time>2019-07-23T18:02:27Z</time>
      </trkpt>
      <trkpt lat="49.02449" lon="2.03624">
        <ele>47</ele>
        <time>2019-07-23T18:02:33Z</time>
      </trkpt>
      <trkpt lat="49.02456" lon="2.03615">
        <ele>47</ele>
        <time>2019-07-23T18:02:38Z</time>
      </trkpt>
      <trkpt lat="49.02466" lon="2.03607">
        <ele>47</ele>
        <time>2019-07-23T18:02:45Z</time>
      </trkpt>
      <trkpt lat="49.02475" lon="2.03601">
        <ele>47</ele>
        <time>2019-07-23T18:02:52Z</time>
      </trkpt>
      <trkpt lat="49.02484" lon="2.03594">
        <ele>47</ele>
        <time>2019-07-23T18:02:58Z</time>
      </trkpt>
      <trkpt lat="49.02492" lon="2.03589">
        <ele>47</ele>
        <time>2019-07-23T18:03:06Z</time>
      </trkpt>
      <trkpt lat="49.02501" lon="2.03582">
        <ele>47</ele>
        <time>2019-07-23T18:03:13Z</time>
      </trkpt>
      <trkpt lat="49.02508" lon="2.03574">
        <ele>47</ele>
        <time>2019-07-23T18:03:20Z</time>
      </trkpt>
      <trkpt lat="49.02516" lon="2.03566">
        <ele>47</ele>
        <time>2019-07-23T18:03:30Z</time>
      </trkpt>
      <trkpt lat="49.02524" lon="2.03559">
        <ele>47</ele>
        <time>2019-07-23T18:03:36Z</time>
      </trkpt>
      <trkpt lat="49.02534" lon="2.03555">
        <ele>47</ele>
        <time>2019-07-23T18:03:44Z</time>
      </trkpt>
      <trkpt lat="49.02542" lon="2.03549">
        <ele>47</ele>
        <time>2019-07-23T18:03:54Z</time>
      </trkpt>
      <trkpt lat="49.02549" lon="2.0354">
        <ele>47</ele>
        <time>2019-07-23T18:04:01Z</time>
      </trkpt>
      <trkpt lat="49.02556" lon="2.03531">
        <ele>47</ele>
        <time>2019-07-23T18:04:09Z</time>
      </trkpt>
      <trkpt lat="49.02557" lon="2.03516">
        <ele>48</ele>
        <time>2019-07-23T18:04:18Z</time>
      </trkpt>
      <trkpt lat="49.02566" lon="2.03513">
        <ele>48</ele>
        <time>2019-07-23T18:04:25Z</time>
      </trkpt>
      <trkpt lat="49.02575" lon="2.03505">
        <ele>48</ele>
        <time>2019-07-23T18:04:32Z</time>
      </trkpt>
      <trkpt lat="49.02585" lon="2.03503">
        <ele>48</ele>
        <time>2019-07-23T18:04:38Z</time>
      </trkpt>
      <trkpt lat="49.02593" lon="2.03493">
        <ele>48</ele>
        <time>2019-07-23T18:04:44Z</time>
      </trkpt>
      <trkpt lat="49.02601" lon="2.03486">
        <ele>48</ele>
        <time>2019-07-23T18:04:51Z</time>
      </trkpt>
      <trkpt lat="49.0261" lon="2.03477">
        <ele>47</ele>
        <time>2019-07-23T18:04:59Z</time>
      </trkpt>
      <trkpt lat="49.02619" lon="2.03472">
        <ele>47</ele>
        <time>2019-07-23T18:05:06Z</time>
      </trkpt>
      <trkpt lat="49.02627" lon="2.03466">
        <ele>47</ele>
        <time>2019-07-23T18:05:14Z</time>
      </trkpt>
      <trkpt lat="49.02636" lon="2.03457">
        <ele>47</ele>
        <time>2019-07-23T18:05:20Z</time>
      </trkpt>
      <trkpt lat="49.02645" lon="2.03453">
        <ele>46</ele>
        <time>2019-07-23T18:05:25Z</time>
      </trkpt>
      <trkpt lat="49.02653" lon="2.03446">
        <ele>47</ele>
        <time>2019-07-23T18:05:33Z</time>
      </trkpt>
      <trkpt lat="49.02662" lon="2.03439">
        <ele>47</ele>
        <time>2019-07-23T18:05:40Z</time>
      </trkpt>
      <trkpt lat="49.02671" lon="2.03432">
        <ele>44</ele>
        <time>2019-07-23T18:05:48Z</time>
      </trkpt>
      <trkpt lat="49.02678" lon="2.03422">
        <ele>45</ele>
        <time>2019-07-23T18:05:54Z</time>
      </trkpt>
      <trkpt lat="49.02684" lon="2.03413">
        <ele>48</ele>
        <time>2019-07-23T18:06:02Z</time>
      </trkpt>
      <trkpt lat="49.02694" lon="2.03412">
        <ele>47</ele>
        <time>2019-07-23T18:06:09Z</time>
      </trkpt>
      <trkpt lat="49.02702" lon="2.03403">
        <ele>47</ele>
        <time>2019-07-23T18:06:17Z</time>
      </trkpt>
      <trkpt lat="49.02711" lon="2.03396">
        <ele>47</ele>
        <time>2019-07-23T18:06:25Z</time>
      </trkpt>
      <trkpt lat="49.0272" lon="2.03387">
        <ele>47</ele>
        <time>2019-07-23T18:06:33Z</time>
      </trkpt>
      <trkpt lat="49.02726" lon="2.03375">
        <ele>47</ele>
        <time>2019-07-23T18:06:41Z</time>
      </trkpt>
      <trkpt lat="49.02735" lon="2.03367">
        <ele>48</ele>
        <time>2019-07-23T18:06:48Z</time>
      </trkpt>
      <trkpt lat="49.02743" lon="2.03357">
        <ele>48</ele>
        <time>2019-07-23T18:06:55Z</time>
      </trkpt>
      <trkpt lat="49.02752" lon="2.03351">
        <ele>46</ele>
        <time>2019-07-23T18:07:03Z</time>
      </trkpt>
      <trkpt lat="49.0276" lon="2.03341">
        <ele>47</ele>
        <time>2019-07-23T18:07:10Z</time>
      </trkpt>
      <trkpt lat="49.02768" lon="2.03333">
        <ele>51</ele>
        <time>2019-07-23T18:07:16Z</time>
      </trkpt>
      <trkpt lat="49.02774" lon="2.03322">
        <ele>51</ele>
        <time>2019-07-23T18:07:23Z</time>
      </trkpt>
      <trkpt lat="49.02782" lon="2.03313">
        <ele>51</ele>
        <time>2019-07-23T18:07:32Z</time>
      </trkpt>
      <trkpt lat="49.02789" lon="2.03305">
        <ele>51</ele>
        <time>2019-07-23T18:07:39Z</time>
      </trkpt>
      <trkpt lat="49.02799" lon="2.03302">
        <ele>51</ele>
        <time>2019-07-23T18:07:48Z</time>
      </trkpt>
      <trkpt lat="49.02804" lon="2.03291">
        <ele>51</ele>
        <time>2019-07-23T18:07:54Z</time>
      </trkpt>
      <trkpt lat="49.028" lon="2.03278">
        <ele>52</ele>
        <time>2019-07-23T18:08:00Z</time>
      </trkpt>
      <trkpt lat="49.02797" lon="2.03265">
        <ele>52</ele>
        <time>2019-07-23T18:08:08Z</time>
      </trkpt>
      <trkpt lat="49.02792" lon="2.03251">
        <ele>53</ele>
        <time>2019-07-23T18:08:15Z</time>
      </trkpt>
      <trkpt lat="49.02791" lon="2.03237">
        <ele>58</ele>
        <time>2019-07-23T18:08:23Z</time>
      </trkpt>
      <trkpt lat="49.02787" lon="2.03225">
        <ele>59</ele>
        <time>2019-07-23T18:08:30Z</time>
      </trkpt>
      <trkpt lat="49.02783" lon="2.0321">
        <ele>60</ele>
        <time>2019-07-23T18:08:38Z</time>
      </trkpt>
      <trkpt lat="49.02781" lon="2.03194">
        <ele>61</ele>
        <time>2019-07-23T18:08:47Z</time>
      </trkpt>
      <trkpt lat="49.02785" lon="2.03181">
        <ele>61</ele>
        <time>2019-07-23T18:08:54Z</time>
      </trkpt>
      <trkpt lat="49.02793" lon="2.03171">
        <ele>61</ele>
        <time>2019-07-23T18:09:05Z</time>
      </trkpt>
      <trkpt lat="49.02802" lon="2.03168">
        <ele>61</ele>
        <time>2019-07-23T18:09:14Z</time>
      </trkpt>
      <trkpt lat="49.02814" lon="2.03164">
        <ele>67</ele>
        <time>2019-07-23T18:09:21Z</time>
      </trkpt>
      <trkpt lat="49.02823" lon="2.03162">
        <ele>66</ele>
        <time>2019-07-23T18:09:27Z</time>
      </trkpt>
      <trkpt lat="49.02832" lon="2.03161">
        <ele>64</ele>
        <time>2019-07-23T18:09:35Z</time>
      </trkpt>
      <trkpt lat="49.02842" lon="2.03157">
        <ele>63</ele>
        <time>2019-07-23T18:09:44Z</time>
      </trkpt>
      <trkpt lat="49.0285" lon="2.03148">
        <ele>64</ele>
        <time>2019-07-23T18:09:53Z</time>
      </trkpt>
      <trkpt lat="49.02859" lon="2.03139">
        <ele>65</ele>
        <time>2019-07-23T18:10:03Z</time>
      </trkpt>
      <trkpt lat="49.02867" lon="2.03132">
        <ele>65</ele>
        <time>2019-07-23T18:10:11Z</time>
      </trkpt>
      <trkpt lat="49.02875" lon="2.03125">
        <ele>65</ele>
        <time>2019-07-23T18:10:18Z</time>
      </trkpt>
      <trkpt lat="49.02884" lon="2.03119">
        <ele>65</ele>
        <time>2019-07-23T18:10:25Z</time>
      </trkpt>
      <trkpt lat="49.02894" lon="2.03116">
        <ele>65</ele>
        <time>2019-07-23T18:10:32Z</time>
      </trkpt>
      <trkpt lat="49.02903" lon="2.03113">
        <ele>65</ele>
        <time>2019-07-23T18:10:38Z</time>
      </trkpt>
      <trkpt lat="49.02913" lon="2.03108">
        <ele>65</ele>
        <time>2019-07-23T18:10:44Z</time>
      </trkpt>
      <trkpt lat="49.02922" lon="2.03104">
        <ele>62</ele>
        <time>2019-07-23T18:10:49Z</time>
      </trkpt>
      <trkpt lat="49.02931" lon="2.031">
        <ele>62</ele>
        <time>2019-07-23T18:10:54Z</time>
      </trkpt>
      <trkpt lat="49.02942" lon="2.03101">
        <ele>62</ele>
        <time>2019-07-23T18:11:02Z</time>
      </trkpt>
      <trkpt lat="49.02951" lon="2.03102">
        <ele>61</ele>
        <time>2019-07-23T18:11:12Z</time>
      </trkpt>
      <trkpt lat="49.02962" lon="2.03097">
        <ele>61</ele>
        <time>2019-07-23T18:11:20Z</time>
      </trkpt>
      <trkpt lat="49.02971" lon="2.03094">
        <ele>61</ele>
        <time>2019-07-23T18:11:28Z</time>
      </trkpt>
      <trkpt lat="49.0298" lon="2.03089">
        <ele>61</ele>
        <time>2019-07-23T18:11:34Z</time>
      </trkpt>
      <trkpt lat="49.02989" lon="2.03084">
        <ele>61</ele>
        <time>2019-07-23T18:11:41Z</time>
      </trkpt>
      <trkpt lat="49.02998" lon="2.03081">
        <ele>64</ele>
        <time>2019-07-23T18:11:48Z</time>
      </trkpt>
      <trkpt lat="49.03009" lon="2.03081">
        <ele>65</ele>
        <time>2019-07-23T18:11:59Z</time>
      </trkpt>
      <trkpt lat="49.03019" lon="2.03081">
        <ele>66</ele>
        <time>2019-07-23T18:12:08Z</time>
      </trkpt>
      <trkpt lat="49.03029" lon="2.03078">
        <ele>67</ele>
        <time>2019-07-23T18:12:27Z</time>
      </trkpt>
      <trkpt lat="49.03039" lon="2.03074">
        <ele>68</ele>
        <time>2019-07-23T18:12:33Z</time>
      </trkpt>
      <trkpt lat="49.03049" lon="2.03072">
        <ele>68</ele>
        <time>2019-07-23T18:12:39Z</time>
      </trkpt>
      <trkpt lat="49.03058" lon="2.03067">
        <ele>68</ele>
        <time>2019-07-23T18:12:47Z</time>
      </trkpt>
      <trkpt lat="49.03069" lon="2.03066">
        <ele>67</ele>
        <time>2019-07-23T18:12:54Z</time>
      </trkpt>
      <trkpt lat="49.03079" lon="2.03063">
        <ele>67</ele>
        <time>2019-07-23T18:12:58Z</time>
      </trkpt>
      <trkpt lat="49.03088" lon="2.03062">
        <ele>66</ele>
        <time>2019-07-23T18:13:07Z</time>
      </trkpt>
      <trkpt lat="49.03097" lon="2.03061">
        <ele>67</ele>
        <time>2019-07-23T18:13:15Z</time>
      </trkpt>
      <trkpt lat="49.03104" lon="2.03072">
        <ele>66</ele>
        <time>2019-07-23T18:13:36Z</time>
      </trkpt>
      <trkpt lat="49.03112" lon="2.03076">
        <ele>66</ele>
        <time>2019-07-23T18:13:45Z</time>
      </trkpt>
      <trkpt lat="49.03111" lon="2.03092">
        <ele>58</ele>
        <time>2019-07-23T18:13:55Z</time>
      </trkpt>
      <trkpt lat="49.03112" lon="2.03106">
        <ele>57</ele>
        <time>2019-07-23T18:14:05Z</time>
      </trkpt>
      <trkpt lat="49.03115" lon="2.03122">
        <ele>56</ele>
        <time>2019-07-23T18:14:11Z</time>
      </trkpt>
      <trkpt lat="49.03118" lon="2.03135">
        <ele>56</ele>
        <time>2019-07-23T18:14:16Z</time>
      </trkpt>
      <trkpt lat="49.03122" lon="2.03147">
        <ele>55</ele>
        <time>2019-07-23T18:14:22Z</time>
      </trkpt>
      <trkpt lat="49.03124" lon="2.03162">
        <ele>55</ele>
        <time>2019-07-23T18:14:29Z</time>
      </trkpt>
      <trkpt lat="49.03127" lon="2.03175">
        <ele>48</ele>
        <time>2019-07-23T18:14:36Z</time>
      </trkpt>
      <trkpt lat="49.03135" lon="2.03183">
        <ele>48</ele>
        <time>2019-07-23T18:14:41Z</time>
      </trkpt>
      <trkpt lat="49.03145" lon="2.03187">
        <ele>48</ele>
        <time>2019-07-23T18:14:49Z</time>
      </trkpt>
      <trkpt lat="49.03154" lon="2.03189">
        <ele>48</ele>
        <time>2019-07-23T18:14:56Z</time>
      </trkpt>
      <trkpt lat="49.03163" lon="2.03191">
        <ele>48</ele>
        <time>2019-07-23T18:15:04Z</time>
      </trkpt>
      <trkpt lat="49.03173" lon="2.03193">
        <ele>48</ele>
        <time>2019-07-23T18:15:12Z</time>
      </trkpt>
      <trkpt lat="49.03182" lon="2.03195">
        <ele>48</ele>
        <time>2019-07-23T18:15:19Z</time>
      </trkpt>
      <trkpt lat="49.03192" lon="2.03196">
        <ele>48</ele>
        <time>2019-07-23T18:15:26Z</time>
      </trkpt>
      <trkpt lat="49.03201" lon="2.03196">
        <ele>48</ele>
        <time>2019-07-23T18:15:32Z</time>
      </trkpt>
      <trkpt lat="49.03211" lon="2.03196">
        <ele>48</ele>
        <time>2019-07-23T18:15:39Z</time>
      </trkpt>
      <trkpt lat="49.0322" lon="2.03196">
        <ele>48</ele>
        <time>2019-07-23T18:15:46Z</time>
      </trkpt>
      <trkpt lat="49.0323" lon="2.03195">
        <ele>48</ele>
        <time>2019-07-23T18:15:53Z</time>
      </trkpt>
      <trkpt lat="49.03239" lon="2.03193">
        <ele>49</ele>
        <time>2019-07-23T18:15:59Z</time>
      </trkpt>
      <trkpt lat="49.03249" lon="2.03193">
        <ele>49</ele>
        <time>2019-07-23T18:16:05Z</time>
      </trkpt>
      <trkpt lat="49.03258" lon="2.03191">
        <ele>49</ele>
        <time>2019-07-23T18:16:13Z</time>
      </trkpt>
      <trkpt lat="49.03268" lon="2.03189">
        <ele>49</ele>
        <time>2019-07-23T18:16:20Z</time>
      </trkpt>
      <trkpt lat="49.03277" lon="2.03188">
        <ele>49</ele>
        <time>2019-07-23T18:16:29Z</time>
      </trkpt>
      <trkpt lat="49.03287" lon="2.03181">
        <ele>49</ele>
        <time>2019-07-23T18:16:35Z</time>
      </trkpt>
      <trkpt lat="49.03296" lon="2.03178">
        <ele>49</ele>
        <time>2019-07-23T18:16:43Z</time>
      </trkpt>
      <trkpt lat="49.03304" lon="2.03172">
        <ele>50</ele>
        <time>2019-07-23T18:16:50Z</time>
      </trkpt>
      <trkpt lat="49.03314" lon="2.03173">
        <ele>50</ele>
        <time>2019-07-23T18:17:02Z</time>
      </trkpt>
      <trkpt lat="49.03323" lon="2.03174">
        <ele>51</ele>
        <time>2019-07-23T18:17:13Z</time>
      </trkpt>
      <trkpt lat="49.03333" lon="2.03176">
        <ele>51</ele>
        <time>2019-07-23T18:17:22Z</time>
      </trkpt>
      <trkpt lat="49.03343" lon="2.03174">
        <ele>50</ele>
        <time>2019-07-23T18:17:28Z</time>
      </trkpt>
      <trkpt lat="49.03352" lon="2.03171">
        <ele>50</ele>
        <time>2019-07-23T18:17:34Z</time>
      </trkpt>
      <trkpt lat="49.03362" lon="2.03168">
        <ele>49</ele>
        <time>2019-07-23T18:17:39Z</time>
      </trkpt>
      <trkpt lat="49.03371" lon="2.03165">
        <ele>53</ele>
        <time>2019-07-23T18:17:46Z</time>
      </trkpt>
      <trkpt lat="49.0338" lon="2.03163">
        <ele>52</ele>
        <time>2019-07-23T18:17:53Z</time>
      </trkpt>
      <trkpt lat="49.0339" lon="2.03159">
        <ele>52</ele>
        <time>2019-07-23T18:17:59Z</time>
      </trkpt>
      <trkpt lat="49.03399" lon="2.03154">
        <ele>51</ele>
        <time>2019-07-23T18:18:05Z</time>
      </trkpt>
      <trkpt lat="49.03408" lon="2.03148">
        <ele>51</ele>
        <time>2019-07-23T18:18:12Z</time>
      </trkpt>
      <trkpt lat="49.03417" lon="2.03141">
        <ele>46</ele>
        <time>2019-07-23T18:18:20Z</time>
      </trkpt>
      <trkpt lat="49.03426" lon="2.03136">
        <ele>46</ele>
        <time>2019-07-23T18:18:34Z</time>
      </trkpt>
      <trkpt lat="49.03435" lon="2.03136">
        <ele>46</ele>
        <time>2019-07-23T18:18:41Z</time>
      </trkpt>
      <trkpt lat="49.03445" lon="2.03135">
        <ele>46</ele>
        <time>2019-07-23T18:18:47Z</time>
      </trkpt>
      <trkpt lat="49.03454" lon="2.03133">
        <ele>45</ele>
        <time>2019-07-23T18:18:54Z</time>
      </trkpt>
      <trkpt lat="49.03464" lon="2.03134">
        <ele>45</ele>
        <time>2019-07-23T18:19:02Z</time>
      </trkpt>
      <trkpt lat="49.03471" lon="2.03124">
        <ele>45</ele>
        <time>2019-07-23T18:19:13Z</time>
      </trkpt>
      <trkpt lat="49.03478" lon="2.03112">
        <ele>45</ele>
        <time>2019-07-23T18:19:21Z</time>
      </trkpt>
      <trkpt lat="49.03483" lon="2.03099">
        <ele>45</ele>
        <time>2019-07-23T18:19:29Z</time>
      </trkpt>
      <trkpt lat="49.03489" lon="2.03086">
        <ele>45</ele>
        <time>2019-07-23T18:19:36Z</time>
      </trkpt>
      <trkpt lat="49.03494" lon="2.03073">
        <ele>47</ele>
        <time>2019-07-23T18:19:44Z</time>
      </trkpt>
      <trkpt lat="49.03498" lon="2.0306">
        <ele>48</ele>
        <time>2019-07-23T18:19:52Z</time>
      </trkpt>
      <trkpt lat="49.035" lon="2.03047">
        <ele>49</ele>
        <time>2019-07-23T18:20:02Z</time>
      </trkpt>
      <trkpt lat="49.03505" lon="2.03034">
        <ele>44</ele>
        <time>2019-07-23T18:20:13Z</time>
      </trkpt>
      <trkpt lat="49.03507" lon="2.0302">
        <ele>45</ele>
        <time>2019-07-23T18:20:22Z</time>
      </trkpt>
      <trkpt lat="49.03506" lon="2.03005">
        <ele>47</ele>
        <time>2019-07-23T18:20:30Z</time>
      </trkpt>
      <trkpt lat="49.03511" lon="2.02993">
        <ele>46</ele>
        <time>2019-07-23T18:20:46Z</time>
      </trkpt>
      <trkpt lat="49.03521" lon="2.0299">
        <ele>45</ele>
        <time>2019-07-23T18:20:59Z</time>
      </trkpt>
      <trkpt lat="49.0353" lon="2.02991">
        <ele>45</ele>
        <time>2019-07-23T18:21:11Z</time>
      </trkpt>
      <trkpt lat="49.03539" lon="2.02988">
        <ele>44</ele>
        <time>2019-07-23T18:21:20Z</time>
      </trkpt>
      <trkpt lat="49.03549" lon="2.02989">
        <ele>44</ele>
        <time>2019-07-23T18:21:27Z</time>
      </trkpt>
      <trkpt lat="49.03558" lon="2.02988">
        <ele>43</ele>
        <time>2019-07-23T18:21:35Z</time>
      </trkpt>
      <trkpt lat="49.03567" lon="2.0298">
        <ele>43</ele>
        <time>2019-07-23T18:21:44Z</time>
      </trkpt>
      <trkpt lat="49.03576" lon="2.02976">
        <ele>42</ele>
        <time>2019-07-23T18:21:50Z</time>
      </trkpt>
      <trkpt lat="49.03586" lon="2.02977">
        <ele>44</ele>
        <time>2019-07-23T18:21:54Z</time>
      </trkpt>
      <trkpt lat="49.03596" lon="2.02981">
        <ele>44</ele>
        <time>2019-07-23T18:22:03Z</time>
      </trkpt>
      <trkpt lat="49.03605" lon="2.02983">
        <ele>45</ele>
        <time>2019-07-23T18:22:15Z</time>
      </trkpt>
      <trkpt lat="49.03615" lon="2.02989">
        <ele>45</ele>
        <time>2019-07-23T18:22:23Z</time>
      </trkpt>
      <trkpt lat="49.03624" lon="2.02993">
        <ele>46</ele>
        <time>2019-07-23T18:22:27Z</time>
      </trkpt>
      <trkpt lat="49.03634" lon="2.03002">
        <ele>46</ele>
        <time>2019-07-23T18:22:31Z</time>
      </trkpt>
      <trkpt lat="49.0364" lon="2.03012">
        <ele>46</ele>
        <time>2019-07-23T18:22:43Z</time>
      </trkpt>
      <trkpt lat="49.03647" lon="2.03023">
        <ele>46</ele>
        <time>2019-07-23T18:22:51Z</time>
      </trkpt>
      <trkpt lat="49.03654" lon="2.03034">
        <ele>46</ele>
        <time>2019-07-23T18:22:59Z</time>
      </trkpt>
      <trkpt lat="49.03662" lon="2.03041">
        <ele>46</ele>
        <time>2019-07-23T18:23:05Z</time>
      </trkpt>
      <trkpt lat="49.03669" lon="2.03054">
        <ele>56</ele>
        <time>2019-07-23T18:23:12Z</time>
      </trkpt>
      <trkpt lat="49.03675" lon="2.03066">
        <ele>55</ele>
        <time>2019-07-23T18:23:18Z</time>
      </trkpt>
      <trkpt lat="49.03677" lon="2.0308">
        <ele>53</ele>
        <time>2019-07-23T18:23:28Z</time>
      </trkpt>
      <trkpt lat="49.03678" lon="2.03096">
        <ele>54</ele>
        <time>2019-07-23T18:23:37Z</time>
      </trkpt>
      <trkpt lat="49.03679" lon="2.03111">
        <ele>56</ele>
        <time>2019-07-23T18:23:44Z</time>
      </trkpt>
      <trkpt lat="49.03682" lon="2.03124">
        <ele>56</ele>
        <time>2019-07-23T18:23:53Z</time>
      </trkpt>
      <trkpt lat="49.03684" lon="2.03138">
        <ele>56</ele>
        <time>2019-07-23T18:24:00Z</time>
      </trkpt>
      <trkpt lat="49.03688" lon="2.03152">
        <ele>56</ele>
        <time>2019-07-23T18:24:08Z</time>
      </trkpt>
      <trkpt lat="49.0369" lon="2.03166">
        <ele>56</ele>
        <time>2019-07-23T18:24:15Z</time>
      </trkpt>
      <trkpt lat="49.03693" lon="2.0318">
        <ele>56</ele>
        <time>2019-07-23T18:24:22Z</time>
      </trkpt>
      <trkpt lat="49.0369" lon="2.03194">
        <ele>56</ele>
        <time>2019-07-23T18:24:31Z</time>
      </trkpt>
      <trkpt lat="49.03689" lon="2.03209">
        <ele>56</ele>
        <time>2019-07-23T18:24:40Z</time>
      </trkpt>
      <trkpt lat="49.03691" lon="2.03224">
        <ele>56</ele>
        <time>2019-07-23T18:24:50Z</time>
      </trkpt>
      <trkpt lat="49.03695" lon="2.0324">
        <ele>56</ele>
        <time>2019-07-23T18:24:56Z</time>
      </trkpt>
      <trkpt lat="49.03697" lon="2.03255">
        <ele>54</ele>
        <time>2019-07-23T18:25:03Z</time>
      </trkpt>
      <trkpt lat="49.03699" lon="2.03269">
        <ele>54</ele>
        <time>2019-07-23T18:25:11Z</time>
      </trkpt>
      <trkpt lat="49.03703" lon="2.03282">
        <ele>54</ele>
        <time>2019-07-23T18:25:17Z</time>
      </trkpt>
      <trkpt lat="49.03707" lon="2.03295">
        <ele>54</ele>
        <time>2019-07-23T18:25:26Z</time>
      </trkpt>
      <trkpt lat="49.03712" lon="2.03308">
        <ele>54</ele>
        <time>2019-07-23T18:25:34Z</time>
      </trkpt>
      <trkpt lat="49.03719" lon="2.0332">
        <ele>55</ele>
        <time>2019-07-23T18:25:42Z</time>
      </trkpt>
      <trkpt lat="49.03721" lon="2.03335">
        <ele>52</ele>
        <time>2019-07-23T18:25:50Z</time>
      </trkpt>
      <trkpt lat="49.03727" lon="2.03348">
        <ele>52</ele>
        <time>2019-07-23T18:25:58Z</time>
      </trkpt>
      <trkpt lat="49.03733" lon="2.03357">
        <ele>52</ele>
        <time>2019-07-23T18:26:05Z</time>
      </trkpt>
      <trkpt lat="49.03739" lon="2.03369">
        <ele>51</ele>
        <time>2019-07-23T18:26:14Z</time>
      </trkpt>
      <trkpt lat="49.03746" lon="2.03381">
        <ele>51</ele>
        <time>2019-07-23T18:26:22Z</time>
      </trkpt>
      <trkpt lat="49.03751" lon="2.03392">
        <ele>58</ele>
        <time>2019-07-23T18:26:30Z</time>
      </trkpt>
      <trkpt lat="49.03759" lon="2.03402">
        <ele>57</ele>
        <time>2019-07-23T18:26:39Z</time>
      </trkpt>
      <trkpt lat="49.03766" lon="2.03413">
        <ele>56</ele>
        <time>2019-07-23T18:26:47Z</time>
      </trkpt>
      <trkpt lat="49.03774" lon="2.03419">
        <ele>53</ele>
        <time>2019-07-23T18:26:56Z</time>
      </trkpt>
      <trkpt lat="49.03783" lon="2.03428">
        <ele>54</ele>
        <time>2019-07-23T18:27:03Z</time>
      </trkpt>
      <trkpt lat="49.03792" lon="2.03435">
        <ele>55</ele>
        <time>2019-07-23T18:27:10Z</time>
      </trkpt>
      <trkpt lat="49.03801" lon="2.0344">
        <ele>55</ele>
        <time>2019-07-23T18:27:17Z</time>
      </trkpt>
      <trkpt lat="49.03809" lon="2.03448">
        <ele>55</ele>
        <time>2019-07-23T18:27:23Z</time>
      </trkpt>
      <trkpt lat="49.03817" lon="2.03453">
        <ele>55</ele>
        <time>2019-07-23T18:27:32Z</time>
      </trkpt>
      <trkpt lat="49.03824" lon="2.03462">
        <ele>55</ele>
        <time>2019-07-23T18:27:39Z</time>
      </trkpt>
      <trkpt lat="49.03834" lon="2.03467">
        <ele>62</ele>
        <time>2019-07-23T18:27:50Z</time>
      </trkpt>
      <trkpt lat="49.03844" lon="2.03471">
        <ele>62</ele>
        <time>2019-07-23T18:27:56Z</time>
      </trkpt>
      <trkpt lat="49.03851" lon="2.0348">
        <ele>62</ele>
        <time>2019-07-23T18:28:03Z</time>
      </trkpt>
      <trkpt lat="49.0386" lon="2.03488">
        <ele>62</ele>
        <time>2019-07-23T18:28:08Z</time>
      </trkpt>
      <trkpt lat="49.03868" lon="2.03495">
        <ele>63</ele>
        <time>2019-07-23T18:28:17Z</time>
      </trkpt>
      <trkpt lat="49.03876" lon="2.03504">
        <ele>57</ele>
        <time>2019-07-23T18:28:25Z</time>
      </trkpt>
      <trkpt lat="49.03884" lon="2.03513">
        <ele>57</ele>
        <time>2019-07-23T18:28:34Z</time>
      </trkpt>
      <trkpt lat="49.03891" lon="2.03522">
        <ele>58</ele>
        <time>2019-07-23T18:28:42Z</time>
      </trkpt>
      <trkpt lat="49.03899" lon="2.03532">
        <ele>57</ele>
        <time>2019-07-23T18:28:50Z</time>
      </trkpt>
      <trkpt lat="49.03908" lon="2.03537">
        <ele>57</ele>
        <time>2019-07-23T18:29:00Z</time>
      </trkpt>
      <trkpt lat="49.03916" lon="2.03543">
        <ele>57</ele>
        <time>2019-07-23T18:29:08Z</time>
      </trkpt>
      <trkpt lat="49.03924" lon="2.03551">
        <ele>65</ele>
        <time>2019-07-23T18:29:17Z</time>
      </trkpt>
      <trkpt lat="49.03932" lon="2.0356">
        <ele>64</ele>
        <time>2019-07-23T18:29:24Z</time>
      </trkpt>
      <trkpt lat="49.03941" lon="2.03568">
        <ele>65</ele>
        <time>2019-07-23T18:29:30Z</time>
      </trkpt>
      <trkpt lat="49.03949" lon="2.03577">
        <ele>66</ele>
        <time>2019-07-23T18:29:36Z</time>
      </trkpt>
      <trkpt lat="49.03955" lon="2.03588">
        <ele>60</ele>
        <time>2019-07-23T18:29:42Z</time>
      </trkpt>
      <trkpt lat="49.03965" lon="2.03596">
        <ele>61</ele>
        <time>2019-07-23T18:29:51Z</time>
      </trkpt>
      <trkpt lat="49.03972" lon="2.03604">
        <ele>61</ele>
        <time>2019-07-23T18:29:58Z</time>
      </trkpt>
      <trkpt lat="49.0398" lon="2.03612">
        <ele>61</ele>
        <time>2019-07-23T18:30:08Z</time>
      </trkpt>
      <trkpt lat="49.03992" lon="2.03618">
        <ele>61</ele>
        <time>2019-07-23T18:30:17Z</time>
      </trkpt>
      <trkpt lat="49.04" lon="2.03623">
        <ele>71</ele>
        <time>2019-07-23T18:30:24Z</time>
      </trkpt>
      <trkpt lat="49.0401" lon="2.03628">
        <ele>70</ele>
        <time>2019-07-23T18:30:31Z</time>
      </trkpt>
      <trkpt lat="49.04018" lon="2.03638">
        <ele>70</ele>
        <time>2019-07-23T18:30:38Z</time>
      </trkpt>
      <trkpt lat="49.04025" lon="2.03647">
        <ele>70</ele>
        <time>2019-07-23T18:30:46Z</time>
      </trkpt>
      <trkpt lat="49.04031" lon="2.03662">
        <ele>69</ele>
        <time>2019-07-23T18:30:54Z</time>
      </trkpt>
      <trkpt lat="49.04036" lon="2.03673">
        <ele>64</ele>
        <time>2019-07-23T18:31:03Z</time>
      </trkpt>
      <trkpt lat="49.04042" lon="2.03685">
        <ele>64</ele>
        <time>2019-07-23T18:31:10Z</time>
      </trkpt>
      <trkpt lat="49.0405" lon="2.03694">
        <ele>64</ele>
        <time>2019-07-23T18:31:18Z</time>
      </trkpt>
      <trkpt lat="49.04057" lon="2.03707">
        <ele>64</ele>
        <time>2019-07-23T18:31:27Z</time>
      </trkpt>
      <trkpt lat="49.04065" lon="2.03717">
        <ele>64</ele>
        <time>2019-07-23T18:31:36Z</time>
      </trkpt>
      <trkpt lat="49.04072" lon="2.03725">
        <ele>64</ele>
        <time>2019-07-23T18:31:43Z</time>
      </trkpt>
      <trkpt lat="49.0408" lon="2.03736">
        <ele>64</ele>
        <time>2019-07-23T18:31:50Z</time>
      </trkpt>
      <trkpt lat="49.04087" lon="2.03744">
        <ele>67</ele>
        <time>2019-07-23T18:31:57Z</time>
      </trkpt>
      <trkpt lat="49.0409" lon="2.03758">
        <ele>65</ele>
        <time>2019-07-23T18:32:04Z</time>
      </trkpt>
      <trkpt lat="49.04096" lon="2.03768">
        <ele>66</ele>
        <time>2019-07-23T18:32:17Z</time>
      </trkpt>
      <trkpt lat="49.04104" lon="2.03779">
        <ele>67</ele>
        <time>2019-07-23T18:32:23Z</time>
      </trkpt>
      <trkpt lat="49.04112" lon="2.03787">
        <ele>67</ele>
        <time>2019-07-23T18:32:27Z</time>
      </trkpt>
      <trkpt lat="49.0412" lon="2.03798">
        <ele>67</ele>
        <time>2019-07-23T18:32:37Z</time>
      </trkpt>
      <trkpt lat="49.04126" lon="2.03808">
        <ele>67</ele>
        <time>2019-07-23T18:32:44Z</time>
      </trkpt>
      <trkpt lat="49.0413" lon="2.03822">
        <ele>67</ele>
        <time>2019-07-23T18:32:54Z</time>
      </trkpt>
      <trkpt lat="49.04135" lon="2.03834">
        <ele>63</ele>
        <time>2019-07-23T18:33:49Z</time>
      </trkpt>
      <trkpt lat="49.04143" lon="2.03843">
        <ele>64</ele>
        <time>2019-07-23T18:33:55Z</time>
      </trkpt>
      <trkpt lat="49.04149" lon="2.03853">
        <ele>64</ele>
        <time>2019-07-23T18:34:07Z</time>
      </trkpt>
      <trkpt lat="49.04155" lon="2.03863">
        <ele>63</ele>
        <time>2019-07-23T18:36:13Z</time>
      </trkpt>
      <trkpt lat="49.04151" lon="2.03876">
        <ele>61</ele>
        <time>2019-07-23T18:36:27Z</time>
      </trkpt>
      <trkpt lat="49.04142" lon="2.0388">
        <ele>60</ele>
        <time>2019-07-23T18:36:39Z</time>
      </trkpt>
      <trkpt lat="49.04133" lon="2.03887">
        <ele>59</ele>
        <time>2019-07-23T18:36:49Z</time>
      </trkpt>
      <trkpt lat="49.04125" lon="2.03894">
        <ele>58</ele>
        <time>2019-07-23T18:36:58Z</time>
      </trkpt>
      <trkpt lat="49.04119" lon="2.03904">
        <ele>57</ele>
        <time>2019-07-23T18:37:15Z</time>
      </trkpt>
      <trkpt lat="49.04111" lon="2.03913">
        <ele>55</ele>
        <time>2019-07-23T18:37:26Z</time>
      </trkpt>
      <trkpt lat="49.04103" lon="2.03921">
        <ele>50</ele>
        <time>2019-07-23T18:37:32Z</time>
      </trkpt>
      <trkpt lat="49.04096" lon="2.03931">
        <ele>49</ele>
        <time>2019-07-23T18:37:48Z</time>
      </trkpt>
      <trkpt lat="49.04089" lon="2.03941">
        <ele>49</ele>
        <time>2019-07-23T18:37:58Z</time>
      </trkpt>
      <trkpt lat="49.04082" lon="2.0395">
        <ele>43</ele>
        <time>2019-07-23T18:38:03Z</time>
      </trkpt>
      <trkpt lat="49.04075" lon="2.0396">
        <ele>42</ele>
        <time>2019-07-23T18:38:10Z</time>
      </trkpt>
      <trkpt lat="49.04067" lon="2.03969">
        <ele>42</ele>
        <time>2019-07-23T18:38:17Z</time>
      </trkpt>
      <trkpt lat="49.04059" lon="2.03974">
        <ele>41</ele>
        <time>2019-07-23T18:38:26Z</time>
      </trkpt>
      <trkpt lat="49.04051" lon="2.03981">
        <ele>41</ele>
        <time>2019-07-23T18:38:32Z</time>
      </trkpt>
      <trkpt lat="49.04043" lon="2.0399">
        <ele>40</ele>
        <time>2019-07-23T18:38:43Z</time>
      </trkpt>
      <trkpt lat="49.04035" lon="2.03998">
        <ele>40</ele>
        <time>2019-07-23T18:38:50Z</time>
      </trkpt>
      <trkpt lat="49.04027" lon="2.04007">
        <ele>38</ele>
        <time>2019-07-23T18:38:59Z</time>
      </trkpt>
      <trkpt lat="49.04019" lon="2.04017">
        <ele>38</ele>
        <time>2019-07-23T18:39:11Z</time>
      </trkpt>
      <trkpt lat="49.04011" lon="2.04023">
        <ele>38</ele>
        <time>2019-07-23T18:39:16Z</time>
      </trkpt>
      <trkpt lat="49.04003" lon="2.04032">
        <ele>38</ele>
        <time>2019-07-23T18:39:25Z</time>
      </trkpt>
      <trkpt lat="49.03996" lon="2.04042">
        <ele>33</ele>
        <time>2019-07-23T18:39:35Z</time>
      </trkpt>
      <trkpt lat="49.03987" lon="2.04051">
        <ele>33</ele>
        <time>2019-07-23T18:39:42Z</time>
      </trkpt>
      <trkpt lat="49.0398" lon="2.0406">
        <ele>33</ele>
        <time>2019-07-23T18:39:48Z</time>
      </trkpt>
      <trkpt lat="49.03973" lon="2.0407">
        <ele>33</ele>
        <time>2019-07-23T18:39:57Z</time>
      </trkpt>
      <trkpt lat="49.03966" lon="2.04081">
        <ele>32</ele>
        <time>2019-07-23T18:40:04Z</time>
      </trkpt>
      <trkpt lat="49.03958" lon="2.0409">
        <ele>30</ele>
        <time>2019-07-23T18:40:14Z</time>
      </trkpt>
      <trkpt lat="49.0395" lon="2.04101">
        <ele>30</ele>
        <time>2019-07-23T18:40:25Z</time>
      </trkpt>
      <trkpt lat="49.03942" lon="2.04109">
        <ele>29</ele>
        <time>2019-07-23T18:40:33Z</time>
      </trkpt>
      <trkpt lat="49.03934" lon="2.04118">
        <ele>29</ele>
        <time>2019-07-23T18:40:43Z</time>
      </trkpt>
      <trkpt lat="49.03926" lon="2.04128">
        <ele>28</ele>
        <time>2019-07-23T18:40:58Z</time>
      </trkpt>
      <trkpt lat="49.03918" lon="2.04137">
        <ele>27</ele>
        <time>2019-07-23T18:41:06Z</time>
      </trkpt>
      <trkpt lat="49.0391" lon="2.04145">
        <ele>24</ele>
        <time>2019-07-23T18:41:14Z</time>
      </trkpt>
      <trkpt lat="49.03902" lon="2.04152">
        <ele>23</ele>
        <time>2019-07-23T18:41:22Z</time>
      </trkpt>
      <trkpt lat="49.03895" lon="2.04163">
        <ele>23</ele>
        <time>2019-07-23T18:41:30Z</time>
      </trkpt>
      <trkpt lat="49.03887" lon="2.04171">
        <ele>23</ele>
        <time>2019-07-23T18:41:38Z</time>
      </trkpt>
      <trkpt lat="49.0388" lon="2.04181">
        <ele>23</ele>
        <time>2019-07-23T18:41:44Z</time>
      </trkpt>
      <trkpt lat="49.03873" lon="2.04191">
        <ele>23</ele>
        <time>2019-07-23T18:41:52Z</time>
      </trkpt>
      <trkpt lat="49.03866" lon="2.04199">
        <ele>23</ele>
        <time>2019-07-23T18:42:01Z</time>
      </trkpt>
      <trkpt lat="49.03857" lon="2.04206">
        <ele>23</ele>
        <time>2019-07-23T18:42:08Z</time>
      </trkpt>
      <trkpt lat="49.0385" lon="2.04216">
        <ele>23</ele>
        <time>2019-07-23T18:42:16Z</time>
      </trkpt>
      <trkpt lat="49.03842" lon="2.04224">
        <ele>23</ele>
        <time>2019-07-23T18:42:23Z</time>
      </trkpt>
      <trkpt lat="49.03833" lon="2.04233">
        <ele>24</ele>
        <time>2019-07-23T18:42:31Z</time>
      </trkpt>
      <trkpt lat="49.03825" lon="2.04241">
        <ele>24</ele>
        <time>2019-07-23T18:42:37Z</time>
      </trkpt>
      <trkpt lat="49.03818" lon="2.04248">
        <ele>24</ele>
        <time>2019-07-23T18:42:46Z</time>
      </trkpt>
      <trkpt lat="49.03811" lon="2.0426">
        <ele>23</ele>
        <time>2019-07-23T18:42:53Z</time>
      </trkpt>
      <trkpt lat="49.03803" lon="2.04268">
        <ele>23</ele>
        <time>2019-07-23T18:43:00Z</time>
      </trkpt>
      <trkpt lat="49.03796" lon="2.04276">
        <ele>23</ele>
        <time>2019-07-23T18:43:06Z</time>
      </trkpt>
      <trkpt lat="49.03787" lon="2.04285">
        <ele>23</ele>
        <time>2019-07-23T18:43:14Z</time>
      </trkpt>
      <trkpt lat="49.0378" lon="2.04293">
        <ele>23</ele>
        <time>2019-07-23T18:43:21Z</time>
      </trkpt>
      <trkpt lat="49.03773" lon="2.04304">
        <ele>23</ele>
        <time>2019-07-23T18:43:31Z</time>
      </trkpt>
      <trkpt lat="49.03765" lon="2.04311">
        <ele>22</ele>
        <time>2019-07-23T18:43:38Z</time>
      </trkpt>
      <trkpt lat="49.03758" lon="2.0432">
        <ele>22</ele>
        <time>2019-07-23T18:43:46Z</time>
      </trkpt>
      <trkpt lat="49.0375" lon="2.04329">
        <ele>22</ele>
        <time>2019-07-23T18:43:54Z</time>
      </trkpt>
      <trkpt lat="49.03743" lon="2.04337">
        <ele>23</ele>
        <time>2019-07-23T18:44:04Z</time>
      </trkpt>
      <trkpt lat="49.03735" lon="2.04343">
        <ele>24</ele>
        <time>2019-07-23T18:44:16Z</time>
      </trkpt>
      <trkpt lat="49.03725" lon="2.0434">
        <ele>24</ele>
        <time>2019-07-23T18:44:48Z</time>
      </trkpt>
      <trkpt lat="49.03721" lon="2.04326">
        <ele>24</ele>
        <time>2019-07-23T18:44:58Z</time>
      </trkpt>
      <trkpt lat="49.03718" lon="2.04311">
        <ele>24</ele>
        <time>2019-07-23T18:45:07Z</time>
      </trkpt>
      <trkpt lat="49.03715" lon="2.04298">
        <ele>24</ele>
        <time>2019-07-23T18:45:15Z</time>
      </trkpt>
      <trkpt lat="49.03711" lon="2.04285">
        <ele>24</ele>
        <time>2019-07-23T18:45:25Z</time>
      </trkpt>
      <trkpt lat="49.03706" lon="2.04273">
        <ele>24</ele>
        <time>2019-07-23T18:45:33Z</time>
      </trkpt>
      <trkpt lat="49.03701" lon="2.04286">
        <ele>24</ele>
        <time>2019-07-23T18:45:45Z</time>
      </trkpt>
      <trkpt lat="49.03701" lon="2.043">
        <ele>24</ele>
        <time>2019-07-23T18:45:52Z</time>
      </trkpt>
      <trkpt lat="49.03699" lon="2.04315">
        <ele>24</ele>
        <time>2019-07-23T18:45:58Z</time>
      </trkpt>
      <trkpt lat="49.037" lon="2.04329">
        <ele>24</ele>
        <time>2019-07-23T18:46:05Z</time>
      </trkpt>
      <trkpt lat="49.03703" lon="2.04342">
        <ele>25</ele>
        <time>2019-07-23T18:46:12Z</time>
      </trkpt>
      <trkpt lat="49.03704" lon="2.04357">
        <ele>25</ele>
        <time>2019-07-23T18:46:19Z</time>
      </trkpt>
      <trkpt lat="49.03707" lon="2.04372">
        <ele>25</ele>
        <time>2019-07-23T18:46:27Z</time>
      </trkpt>
      <trkpt lat="49.03701" lon="2.04384">
        <ele>26</ele>
        <time>2019-07-23T18:46:37Z</time>
      </trkpt>
      <trkpt lat="49.03692" lon="2.04391">
        <ele>26</ele>
        <time>2019-07-23T18:46:45Z</time>
      </trkpt>
      <trkpt lat="49.03683" lon="2.04396">
        <ele>26</ele>
        <time>2019-07-23T18:47:00Z</time>
      </trkpt>
      <trkpt lat="49.03677" lon="2.04386">
        <ele>26</ele>
        <time>2019-07-23T18:47:55Z</time>
      </trkpt>
      <trkpt lat="49.03686" lon="2.04389">
        <ele>26</ele>
        <time>2019-07-23T18:56:44Z</time>
      </trkpt>
      <trkpt lat="49.03677" lon="2.04387">
        <ele>26</ele>
        <time>2019-07-23T18:57:03Z</time>
      </trkpt>
      <trkpt lat="49.0367" lon="2.04396">
        <ele>27</ele>
        <time>2019-07-23T18:59:48Z</time>
      </trkpt>
      <trkpt lat="49.03677" lon="2.04378">
        <ele>26</ele>
        <time>2019-07-23T19:13:53Z</time>
      </trkpt>
      <trkpt lat="49.03671" lon="2.04366">
        <ele>26</ele>
        <time>2019-07-23T19:14:06Z</time>
      </trkpt>
      <trkpt lat="49.03667" lon="2.04353">
        <ele>26</ele>
        <time>2019-07-23T19:14:17Z</time>
      </trkpt>
      <trkpt lat="49.03667" lon="2.04338">
        <ele>27</ele>
        <time>2019-07-23T19:14:26Z</time>
      </trkpt>
      <trkpt lat="49.03664" lon="2.04325">
        <ele>26</ele>
        <time>2019-07-23T19:14:38Z</time>
      </trkpt>
      <trkpt lat="49.03662" lon="2.0431">
        <ele>25</ele>
        <time>2019-07-23T19:14:45Z</time>
      </trkpt>
      <trkpt lat="49.0366" lon="2.04294">
        <ele>24</ele>
        <time>2019-07-23T19:14:52Z</time>
      </trkpt>
      <trkpt lat="49.03657" lon="2.0428">
        <ele>24</ele>
        <time>2019-07-23T19:14:59Z</time>
      </trkpt>
      <trkpt lat="49.03656" lon="2.04266">
        <ele>24</ele>
        <time>2019-07-23T19:15:06Z</time>
      </trkpt>
      <trkpt lat="49.03653" lon="2.04252">
        <ele>24</ele>
        <time>2019-07-23T19:15:16Z</time>
      </trkpt>
      <trkpt lat="49.0365" lon="2.04238">
        <ele>24</ele>
        <time>2019-07-23T19:15:26Z</time>
      </trkpt>
      <trkpt lat="49.03648" lon="2.04225">
        <ele>23</ele>
        <time>2019-07-23T19:15:35Z</time>
      </trkpt>
      <trkpt lat="49.03646" lon="2.04211">
        <ele>23</ele>
        <time>2019-07-23T19:15:42Z</time>
      </trkpt>
      <trkpt lat="49.03643" lon="2.04196">
        <ele>23</ele>
        <time>2019-07-23T19:15:50Z</time>
      </trkpt>
      <trkpt lat="49.03638" lon="2.04185">
        <ele>23</ele>
        <time>2019-07-23T19:15:59Z</time>
      </trkpt>
      <trkpt lat="49.03633" lon="2.04173">
        <ele>23</ele>
        <time>2019-07-23T19:16:14Z</time>
      </trkpt>
      <trkpt lat="49.03623" lon="2.04169">
        <ele>23</ele>
        <time>2019-07-23T19:16:27Z</time>
      </trkpt>
      <trkpt lat="49.03615" lon="2.04165">
        <ele>23</ele>
        <time>2019-07-23T19:16:35Z</time>
      </trkpt>
      <trkpt lat="49.03604" lon="2.04166">
        <ele>23</ele>
        <time>2019-07-23T19:16:44Z</time>
      </trkpt>
      <trkpt lat="49.03594" lon="2.0416">
        <ele>23</ele>
        <time>2019-07-23T19:17:21Z</time>
      </trkpt>
      <trkpt lat="49.03586" lon="2.04156">
        <ele>23</ele>
        <time>2019-07-23T19:17:28Z</time>
      </trkpt>
      <trkpt lat="49.03577" lon="2.04154">
        <ele>23</ele>
        <time>2019-07-23T19:17:33Z</time>
      </trkpt>
      <trkpt lat="49.03568" lon="2.04149">
        <ele>22</ele>
        <time>2019-07-23T19:17:42Z</time>
      </trkpt>
      <trkpt lat="49.03559" lon="2.04144">
        <ele>22</ele>
        <time>2019-07-23T19:17:52Z</time>
      </trkpt>
      <trkpt lat="49.03549" lon="2.04143">
        <ele>22</ele>
        <time>2019-07-23T19:18:00Z</time>
      </trkpt>
      <trkpt lat="49.03538" lon="2.04141">
        <ele>22</ele>
        <time>2019-07-23T19:18:08Z</time>
      </trkpt>
      <trkpt lat="49.03529" lon="2.04138">
        <ele>22</ele>
        <time>2019-07-23T19:18:16Z</time>
      </trkpt>
      <trkpt lat="49.03519" lon="2.04137">
        <ele>22</ele>
        <time>2019-07-23T19:18:24Z</time>
      </trkpt>
      <trkpt lat="49.0351" lon="2.04135">
        <ele>22</ele>
        <time>2019-07-23T19:18:32Z</time>
      </trkpt>
      <trkpt lat="49.03501" lon="2.04127">
        <ele>22</ele>
        <time>2019-07-23T19:18:40Z</time>
      </trkpt>
      <trkpt lat="49.03495" lon="2.04116">
        <ele>22</ele>
        <time>2019-07-23T19:18:49Z</time>
      </trkpt>
      <trkpt lat="49.03488" lon="2.04107">
        <ele>22</ele>
        <time>2019-07-23T19:18:57Z</time>
      </trkpt>
      <trkpt lat="49.03479" lon="2.041">
        <ele>22</ele>
        <time>2019-07-23T19:19:06Z</time>
      </trkpt>
      <trkpt lat="49.03472" lon="2.04092">
        <ele>23</ele>
        <time>2019-07-23T19:19:14Z</time>
      </trkpt>
      <trkpt lat="49.03464" lon="2.04086">
        <ele>23</ele>
        <time>2019-07-23T19:19:20Z</time>
      </trkpt>
      <trkpt lat="49.03456" lon="2.04077">
        <ele>23</ele>
        <time>2019-07-23T19:19:29Z</time>
      </trkpt>
      <trkpt lat="49.03448" lon="2.04067">
        <ele>23</ele>
        <time>2019-07-23T19:19:37Z</time>
      </trkpt>
      <trkpt lat="49.03441" lon="2.04056">
        <ele>23</ele>
        <time>2019-07-23T19:19:44Z</time>
      </trkpt>
      <trkpt lat="49.03433" lon="2.04046">
        <ele>23</ele>
        <time>2019-07-23T19:19:53Z</time>
      </trkpt>
      <trkpt lat="49.03427" lon="2.04037">
        <ele>23</ele>
        <time>2019-07-23T19:20:00Z</time>
      </trkpt>
      <trkpt lat="49.03421" lon="2.04025">
        <ele>23</ele>
        <time>2019-07-23T19:20:10Z</time>
      </trkpt>
      <trkpt lat="49.03413" lon="2.04019">
        <ele>23</ele>
        <time>2019-07-23T19:20:19Z</time>
      </trkpt>
      <trkpt lat="49.03403" lon="2.04015">
        <ele>22</ele>
        <time>2019-07-23T19:20:25Z</time>
      </trkpt>
      <trkpt lat="49.03394" lon="2.04009">
        <ele>22</ele>
        <time>2019-07-23T19:20:32Z</time>
      </trkpt>
      <trkpt lat="49.03386" lon="2.04002">
        <ele>22</ele>
        <time>2019-07-23T19:20:39Z</time>
      </trkpt>
      <trkpt lat="49.03378" lon="2.03995">
        <ele>23</ele>
        <time>2019-07-23T19:20:46Z</time>
      </trkpt>
      <trkpt lat="49.03369" lon="2.03986">
        <ele>23</ele>
        <time>2019-07-23T19:20:54Z</time>
      </trkpt>
      <trkpt lat="49.0336" lon="2.03978">
        <ele>23</ele>
        <time>2019-07-23T19:21:02Z</time>
      </trkpt>
      <trkpt lat="49.03351" lon="2.03973">
        <ele>23</ele>
        <time>2019-07-23T19:21:09Z</time>
      </trkpt>
      <trkpt lat="49.03342" lon="2.03973">
        <ele>23</ele>
        <time>2019-07-23T19:21:15Z</time>
      </trkpt>
      <trkpt lat="49.03332" lon="2.03977">
        <ele>23</ele>
        <time>2019-07-23T19:21:23Z</time>
      </trkpt>
      <trkpt lat="49.03322" lon="2.03983">
        <ele>23</ele>
        <time>2019-07-23T19:21:31Z</time>
      </trkpt>
      <trkpt lat="49.03314" lon="2.03986">
        <ele>23</ele>
        <time>2019-07-23T19:21:37Z</time>
      </trkpt>
      <trkpt lat="49.03304" lon="2.03989">
        <ele>23</ele>
        <time>2019-07-23T19:21:44Z</time>
      </trkpt>
      <trkpt lat="49.03293" lon="2.03987">
        <ele>23</ele>
        <time>2019-07-23T19:21:53Z</time>
      </trkpt>
      <trkpt lat="49.03284" lon="2.03985">
        <ele>23</ele>
        <time>2019-07-23T19:22:01Z</time>
      </trkpt>
      <trkpt lat="49.03274" lon="2.03985">
        <ele>23</ele>
        <time>2019-07-23T19:22:12Z</time>
      </trkpt>
      <trkpt lat="49.03264" lon="2.03981">
        <ele>23</ele>
        <time>2019-07-23T19:22:19Z</time>
      </trkpt>
      <trkpt lat="49.03254" lon="2.03981">
        <ele>23</ele>
        <time>2019-07-23T19:22:26Z</time>
      </trkpt>
      <trkpt lat="49.03244" lon="2.03978">
        <ele>23</ele>
        <time>2019-07-23T19:22:34Z</time>
      </trkpt>
      <trkpt lat="49.03235" lon="2.03979">
        <ele>23</ele>
        <time>2019-07-23T19:22:46Z</time>
      </trkpt>
      <trkpt lat="49.03226" lon="2.03986">
        <ele>23</ele>
        <time>2019-07-23T19:22:52Z</time>
      </trkpt>
      <trkpt lat="49.03216" lon="2.03993">
        <ele>23</ele>
        <time>2019-07-23T19:22:58Z</time>
      </trkpt>
      <trkpt lat="49.03207" lon="2.03997">
        <ele>23</ele>
        <time>2019-07-23T19:23:04Z</time>
      </trkpt>
      <trkpt lat="49.03198" lon="2.04003">
        <ele>23</ele>
        <time>2019-07-23T19:23:17Z</time>
      </trkpt>
      <trkpt lat="49.03193" lon="2.04018">
        <ele>23</ele>
        <time>2019-07-23T19:23:26Z</time>
      </trkpt>
      <trkpt lat="49.03189" lon="2.04032">
        <ele>23</ele>
        <time>2019-07-23T19:23:37Z</time>
      </trkpt>
      <trkpt lat="49.03179" lon="2.04032">
        <ele>23</ele>
        <time>2019-07-23T19:23:41Z</time>
      </trkpt>
      <trkpt lat="49.0317" lon="2.04037">
        <ele>23</ele>
        <time>2019-07-23T19:23:48Z</time>
      </trkpt>
      <trkpt lat="49.03161" lon="2.04045">
        <ele>24</ele>
        <time>2019-07-23T19:23:54Z</time>
      </trkpt>
      <trkpt lat="49.03153" lon="2.04052">
        <ele>24</ele>
        <time>2019-07-23T19:24:05Z</time>
      </trkpt>
      <trkpt lat="49.03145" lon="2.04059">
        <ele>24</ele>
        <time>2019-07-23T19:24:12Z</time>
      </trkpt>
      <trkpt lat="49.03136" lon="2.04061">
        <ele>24</ele>
        <time>2019-07-23T19:24:18Z</time>
      </trkpt>
      <trkpt lat="49.03127" lon="2.04065">
        <ele>24</ele>
        <time>2019-07-23T19:24:28Z</time>
      </trkpt>
      <trkpt lat="49.03118" lon="2.04071">
        <ele>24</ele>
        <time>2019-07-23T19:24:36Z</time>
      </trkpt>
      <trkpt lat="49.03108" lon="2.04075">
        <ele>25</ele>
        <time>2019-07-23T19:24:49Z</time>
      </trkpt>
      <trkpt lat="49.03096" lon="2.04081">
        <ele>25</ele>
        <time>2019-07-23T19:24:58Z</time>
      </trkpt>
      <trkpt lat="49.03087" lon="2.04086">
        <ele>26</ele>
        <time>2019-07-23T19:25:05Z</time>
      </trkpt>
      <trkpt lat="49.0308" lon="2.04095">
        <ele>27</ele>
        <time>2019-07-23T19:25:11Z</time>
      </trkpt>
      <trkpt lat="49.03072" lon="2.04102">
        <ele>27</ele>
        <time>2019-07-23T19:25:22Z</time>
      </trkpt>
      <trkpt lat="49.03062" lon="2.04107">
        <ele>27</ele>
        <time>2019-07-23T19:25:30Z</time>
      </trkpt>
      <trkpt lat="49.03054" lon="2.04115">
        <ele>28</ele>
        <time>2019-07-23T19:25:44Z</time>
      </trkpt>
      <trkpt lat="49.03045" lon="2.04121">
        <ele>28</ele>
        <time>2019-07-23T19:25:54Z</time>
      </trkpt>
      <trkpt lat="49.03035" lon="2.04122">
        <ele>28</ele>
        <time>2019-07-23T19:26:00Z</time>
      </trkpt>
      <trkpt lat="49.03027" lon="2.04128">
        <ele>28</ele>
        <time>2019-07-23T19:26:10Z</time>
      </trkpt>
      <trkpt lat="49.03018" lon="2.04135">
        <ele>28</ele>
        <time>2019-07-23T19:26:16Z</time>
      </trkpt>
      <trkpt lat="49.03009" lon="2.04138">
        <ele>29</ele>
        <time>2019-07-23T19:26:22Z</time>
      </trkpt>
      <trkpt lat="49.03" lon="2.04142">
        <ele>29</ele>
        <time>2019-07-23T19:26:30Z</time>
      </trkpt>
      <trkpt lat="49.0299" lon="2.04146">
        <ele>29</ele>
        <time>2019-07-23T19:26:38Z</time>
      </trkpt>
      <trkpt lat="49.0298" lon="2.04151">
        <ele>29</ele>
        <time>2019-07-23T19:26:48Z</time>
      </trkpt>
      <trkpt lat="49.0297" lon="2.04156">
        <ele>29</ele>
        <time>2019-07-23T19:26:58Z</time>
      </trkpt>
      <trkpt lat="49.02961" lon="2.04159">
        <ele>28</ele>
        <time>2019-07-23T19:27:05Z</time>
      </trkpt>
      <trkpt lat="49.0295" lon="2.04159">
        <ele>28</ele>
        <time>2019-07-23T19:27:12Z</time>
      </trkpt>
      <trkpt lat="49.02941" lon="2.04158">
        <ele>28</ele>
        <time>2019-07-23T19:27:23Z</time>
      </trkpt>
      <trkpt lat="49.02932" lon="2.04153">
        <ele>27</ele>
        <time>2019-07-23T19:27:32Z</time>
      </trkpt>
      <trkpt lat="49.02924" lon="2.04145">
        <ele>27</ele>
        <time>2019-07-23T19:27:48Z</time>
      </trkpt>
      <trkpt lat="49.02915" lon="2.04148">
        <ele>25</ele>
        <time>2019-07-23T19:27:59Z</time>
      </trkpt>
      <trkpt lat="49.02906" lon="2.04154">
        <ele>25</ele>
        <time>2019-07-23T19:28:08Z</time>
      </trkpt>
      <trkpt lat="49.02896" lon="2.04155">
        <ele>24</ele>
        <time>2019-07-23T19:28:21Z</time>
      </trkpt>
      <trkpt lat="49.02886" lon="2.04152">
        <ele>24</ele>
        <time>2019-07-23T19:28:30Z</time>
      </trkpt>
      <trkpt lat="49.02877" lon="2.04147">
        <ele>23</ele>
        <time>2019-07-23T19:28:38Z</time>
      </trkpt>
      <trkpt lat="49.02868" lon="2.04141">
        <ele>23</ele>
        <time>2019-07-23T19:28:47Z</time>
      </trkpt>
      <trkpt lat="49.02863" lon="2.04127">
        <ele>23</ele>
        <time>2019-07-23T19:28:55Z</time>
      </trkpt>
      <trkpt lat="49.0286" lon="2.04113">
        <ele>23</ele>
        <time>2019-07-23T19:29:02Z</time>
      </trkpt>
      <trkpt lat="49.0286" lon="2.041">
        <ele>23</ele>
        <time>2019-07-23T19:29:10Z</time>
      </trkpt>
      <trkpt lat="49.02858" lon="2.04086">
        <ele>22</ele>
        <time>2019-07-23T19:29:18Z</time>
      </trkpt>
      <trkpt lat="49.02858" lon="2.04071">
        <ele>23</ele>
        <time>2019-07-23T19:29:27Z</time>
      </trkpt>
      <trkpt lat="49.02858" lon="2.04056">
        <ele>23</ele>
        <time>2019-07-23T19:29:35Z</time>
      </trkpt>
      <trkpt lat="49.02856" lon="2.04041">
        <ele>23</ele>
        <time>2019-07-23T19:29:43Z</time>
      </trkpt>
      <trkpt lat="49.02853" lon="2.04028">
        <ele>23</ele>
        <time>2019-07-23T19:29:50Z</time>
      </trkpt>
      <trkpt lat="49.02851" lon="2.04015">
        <ele>23</ele>
        <time>2019-07-23T19:29:57Z</time>
      </trkpt>
      <trkpt lat="49.02848" lon="2.04">
        <ele>23</ele>
        <time>2019-07-23T19:30:05Z</time>
      </trkpt>
      <trkpt lat="49.02845" lon="2.03985">
        <ele>23</ele>
        <time>2019-07-23T19:30:13Z</time>
      </trkpt>
      <trkpt lat="49.02842" lon="2.03973">
        <ele>23</ele>
        <time>2019-07-23T19:30:22Z</time>
      </trkpt>
      <trkpt lat="49.02834" lon="2.03962">
        <ele>23</ele>
        <time>2019-07-23T19:30:31Z</time>
      </trkpt>
      <trkpt lat="49.02825" lon="2.03956">
        <ele>22</ele>
        <time>2019-07-23T19:30:37Z</time>
      </trkpt>
      <trkpt lat="49.02816" lon="2.03954">
        <ele>22</ele>
        <time>2019-07-23T19:30:44Z</time>
      </trkpt>
      <trkpt lat="49.02805" lon="2.03954">
        <ele>23</ele>
        <time>2019-07-23T19:30:55Z</time>
      </trkpt>
      <trkpt lat="49.02796" lon="2.03962">
        <ele>22</ele>
        <time>2019-07-23T19:31:02Z</time>
      </trkpt>
      <trkpt lat="49.02787" lon="2.03971">
        <ele>22</ele>
        <time>2019-07-23T19:31:11Z</time>
      </trkpt>
      <trkpt lat="49.02779" lon="2.03981">
        <ele>22</ele>
        <time>2019-07-23T19:31:22Z</time>
      </trkpt>
      <trkpt lat="49.02773" lon="2.03996">
        <ele>22</ele>
        <time>2019-07-23T19:31:28Z</time>
      </trkpt>
      <trkpt lat="49.02771" lon="2.0401">
        <ele>21</ele>
        <time>2019-07-23T19:31:36Z</time>
      </trkpt>
      <trkpt lat="49.02762" lon="2.04013">
        <ele>21</ele>
        <time>2019-07-23T19:31:45Z</time>
      </trkpt>
      <trkpt lat="49.02752" lon="2.0402">
        <ele>21</ele>
        <time>2019-07-23T19:31:51Z</time>
      </trkpt>
      <trkpt lat="49.02743" lon="2.0402">
        <ele>21</ele>
        <time>2019-07-23T19:31:56Z</time>
      </trkpt>
      <trkpt lat="49.02733" lon="2.04023">
        <ele>22</ele>
        <time>2019-07-23T19:32:03Z</time>
      </trkpt>
      <trkpt lat="49.02725" lon="2.04031">
        <ele>22</ele>
        <time>2019-07-23T19:32:11Z</time>
      </trkpt>
      <trkpt lat="49.02716" lon="2.04037">
        <ele>22</ele>
        <time>2019-07-23T19:32:21Z</time>
      </trkpt>
      <trkpt lat="49.02708" lon="2.04045">
        <ele>22</ele>
        <time>2019-07-23T19:32:29Z</time>
      </trkpt>
      <trkpt lat="49.027" lon="2.04053">
        <ele>22</ele>
        <time>2019-07-23T19:32:39Z</time>
      </trkpt>
      <trkpt lat="49.02692" lon="2.04061">
        <ele>22</ele>
        <time>2019-07-23T19:32:48Z</time>
      </trkpt>
      <trkpt lat="49.02682" lon="2.04063">
        <ele>22</ele>
        <time>2019-07-23T19:32:56Z</time>
      </trkpt>
      <trkpt lat="49.02674" lon="2.04072">
        <ele>23</ele>
        <time>2019-07-23T19:33:03Z</time>
      </trkpt>
      <trkpt lat="49.02665" lon="2.04076">
        <ele>23</ele>
        <time>2019-07-23T19:33:09Z</time>
      </trkpt>
      <trkpt lat="49.02657" lon="2.04082">
        <ele>23</ele>
        <time>2019-07-23T19:33:17Z</time>
      </trkpt>
      <trkpt lat="49.0265" lon="2.04093">
        <ele>23</ele>
        <time>2019-07-23T19:33:25Z</time>
      </trkpt>
      <trkpt lat="49.02643" lon="2.04106">
        <ele>23</ele>
        <time>2019-07-23T19:33:32Z</time>
      </trkpt>
      <trkpt lat="49.02638" lon="2.04118">
        <ele>23</ele>
        <time>2019-07-23T19:33:38Z</time>
      </trkpt>
      <trkpt lat="49.02636" lon="2.04131">
        <ele>23</ele>
        <time>2019-07-23T19:33:46Z</time>
      </trkpt>
      <trkpt lat="49.02626" lon="2.04134">
        <ele>23</ele>
        <time>2019-07-23T19:33:56Z</time>
      </trkpt>
      <trkpt lat="49.02622" lon="2.0415">
        <ele>23</ele>
        <time>2019-07-23T19:34:05Z</time>
      </trkpt>
      <trkpt lat="49.02621" lon="2.04164">
        <ele>23</ele>
        <time>2019-07-23T19:34:09Z</time>
      </trkpt>
      <trkpt lat="49.02614" lon="2.04176">
        <ele>23</ele>
        <time>2019-07-23T19:34:16Z</time>
      </trkpt>
      <trkpt lat="49.02611" lon="2.0419">
        <ele>23</ele>
        <time>2019-07-23T19:34:24Z</time>
      </trkpt>
      <trkpt lat="49.02609" lon="2.04204">
        <ele>23</ele>
        <time>2019-07-23T19:34:28Z</time>
      </trkpt>
      <trkpt lat="49.02599" lon="2.04209">
        <ele>23</ele>
        <time>2019-07-23T19:34:35Z</time>
      </trkpt>
      <trkpt lat="49.02593" lon="2.0422">
        <ele>23</ele>
        <time>2019-07-23T19:34:45Z</time>
      </trkpt>
      <trkpt lat="49.02586" lon="2.0423">
        <ele>23</ele>
        <time>2019-07-23T19:34:50Z</time>
      </trkpt>
      <trkpt lat="49.02578" lon="2.04236">
        <ele>24</ele>
        <time>2019-07-23T19:34:56Z</time>
      </trkpt>
      <trkpt lat="49.02571" lon="2.04247">
        <ele>24</ele>
        <time>2019-07-23T19:35:08Z</time>
      </trkpt>
      <trkpt lat="49.02563" lon="2.0426">
        <ele>24</ele>
        <time>2019-07-23T19:35:15Z</time>
      </trkpt>
      <trkpt lat="49.02557" lon="2.04272">
        <ele>24</ele>
        <time>2019-07-23T19:35:23Z</time>
      </trkpt>
      <trkpt lat="49.02549" lon="2.04281">
        <ele>24</ele>
        <time>2019-07-23T19:35:31Z</time>
      </trkpt>
      <trkpt lat="49.02542" lon="2.04291">
        <ele>24</ele>
        <time>2019-07-23T19:35:37Z</time>
      </trkpt>
      <trkpt lat="49.02533" lon="2.04293">
        <ele>24</ele>
        <time>2019-07-23T19:35:52Z</time>
      </trkpt>
      <trkpt lat="49.02524" lon="2.04296">
        <ele>24</ele>
        <time>2019-07-23T19:35:58Z</time>
      </trkpt>
      <trkpt lat="49.02513" lon="2.04302">
        <ele>24</ele>
        <time>2019-07-23T19:36:05Z</time>
      </trkpt>
      <trkpt lat="49.02504" lon="2.04306">
        <ele>24</ele>
        <time>2019-07-23T19:36:11Z</time>
      </trkpt>
      <trkpt lat="49.02495" lon="2.04312">
        <ele>24</ele>
        <time>2019-07-23T19:36:15Z</time>
      </trkpt>
      <trkpt lat="49.02485" lon="2.04312">
        <ele>24</ele>
        <time>2019-07-23T19:36:21Z</time>
      </trkpt>
      <trkpt lat="49.02479" lon="2.04322">
        <ele>24</ele>
        <time>2019-07-23T19:36:29Z</time>
      </trkpt>
      <trkpt lat="49.02471" lon="2.04329">
        <ele>24</ele>
        <time>2019-07-23T19:36:41Z</time>
      </trkpt>
      <trkpt lat="49.02458" lon="2.0433">
        <ele>25</ele>
        <time>2019-07-23T19:36:52Z</time>
      </trkpt>
      <trkpt lat="49.02448" lon="2.04329">
        <ele>25</ele>
        <time>2019-07-23T19:36:55Z</time>
      </trkpt>
      <trkpt lat="49.02442" lon="2.04341">
        <ele>22</ele>
        <time>2019-07-23T19:37:03Z</time>
      </trkpt>
      <trkpt lat="49.02433" lon="2.04344">
        <ele>23</ele>
        <time>2019-07-23T19:37:08Z</time>
      </trkpt>
      <trkpt lat="49.02425" lon="2.0435">
        <ele>23</ele>
        <time>2019-07-23T19:37:17Z</time>
      </trkpt>
      <trkpt lat="49.02418" lon="2.04359">
        <ele>22</ele>
        <time>2019-07-23T19:37:25Z</time>
      </trkpt>
      <trkpt lat="49.02411" lon="2.04367">
        <ele>24</ele>
        <time>2019-07-23T19:37:32Z</time>
      </trkpt>
      <trkpt lat="49.024" lon="2.04361">
        <ele>24</ele>
        <time>2019-07-23T19:37:47Z</time>
      </trkpt>
      <trkpt lat="49.02393" lon="2.0435">
        <ele>25</ele>
        <time>2019-07-23T19:37:55Z</time>
      </trkpt>
      <trkpt lat="49.02389" lon="2.04338">
        <ele>25</ele>
        <time>2019-07-23T19:38:04Z</time>
      </trkpt>
      <trkpt lat="49.0238" lon="2.04331">
        <ele>25</ele>
        <time>2019-07-23T19:38:13Z</time>
      </trkpt>
      <trkpt lat="49.0237" lon="2.04336">
        <ele>25</ele>
        <time>2019-07-23T19:38:28Z</time>
      </trkpt>
      <trkpt lat="49.0236" lon="2.04342">
        <ele>25</ele>
        <time>2019-07-23T19:38:39Z</time>
      </trkpt>
      <trkpt lat="49.02353" lon="2.04352">
        <ele>25</ele>
        <time>2019-07-23T19:38:44Z</time>
      </trkpt>
      <trkpt lat="49.02348" lon="2.04363">
        <ele>25</ele>
        <time>2019-07-23T19:38:55Z</time>
      </trkpt>
      <trkpt lat="49.02341" lon="2.04373">
        <ele>25</ele>
        <time>2019-07-23T19:39:02Z</time>
      </trkpt>
      <trkpt lat="49.02332" lon="2.04383">
        <ele>25</ele>
        <time>2019-07-23T19:39:10Z</time>
      </trkpt>
      <trkpt lat="49.02323" lon="2.04379">
        <ele>25</ele>
        <time>2019-07-23T19:39:23Z</time>
      </trkpt>
      <trkpt lat="49.02314" lon="2.04385">
        <ele>25</ele>
        <time>2019-07-23T19:39:30Z</time>
      </trkpt>
      <trkpt lat="49.02304" lon="2.04387">
        <ele>25</ele>
        <time>2019-07-23T19:39:34Z</time>
      </trkpt>
      <trkpt lat="49.02298" lon="2.04401">
        <ele>24</ele>
        <time>2019-07-23T19:39:41Z</time>
      </trkpt>
      <trkpt lat="49.02289" lon="2.04406">
        <ele>24</ele>
        <time>2019-07-23T19:39:48Z</time>
      </trkpt>
      <trkpt lat="49.02283" lon="2.0442">
        <ele>24</ele>
        <time>2019-07-23T19:39:57Z</time>
      </trkpt>
      <trkpt lat="49.02274" lon="2.04425">
        <ele>24</ele>
        <time>2019-07-23T19:40:05Z</time>
      </trkpt>
      <trkpt lat="49.02272" lon="2.04438">
        <ele>24</ele>
        <time>2019-07-23T19:40:11Z</time>
      </trkpt>
      <trkpt lat="49.02267" lon="2.04452">
        <ele>24</ele>
        <time>2019-07-23T19:40:16Z</time>
      </trkpt>
      <trkpt lat="49.02257" lon="2.04456">
        <ele>24</ele>
        <time>2019-07-23T19:40:23Z</time>
      </trkpt>
      <trkpt lat="49.02251" lon="2.04467">
        <ele>24</ele>
        <time>2019-07-23T19:40:38Z</time>
      </trkpt>
      <trkpt lat="49.02244" lon="2.04479">
        <ele>23</ele>
        <time>2019-07-23T19:40:49Z</time>
      </trkpt>
      <trkpt lat="49.02237" lon="2.0449">
        <ele>23</ele>
        <time>2019-07-23T19:40:54Z</time>
      </trkpt>
      <trkpt lat="49.0224" lon="2.04506">
        <ele>23</ele>
        <time>2019-07-23T19:40:59Z</time>
      </trkpt>
      <trkpt lat="49.02236" lon="2.04519">
        <ele>23</ele>
        <time>2019-07-23T19:41:03Z</time>
      </trkpt>
      <trkpt lat="49.02232" lon="2.04533">
        <ele>23</ele>
        <time>2019-07-23T19:41:08Z</time>
      </trkpt>
      <trkpt lat="49.02234" lon="2.04549">
        <ele>23</ele>
        <time>2019-07-23T19:41:12Z</time>
      </trkpt>
      <trkpt lat="49.02227" lon="2.04561">
        <ele>23</ele>
        <time>2019-07-23T19:41:18Z</time>
      </trkpt>
      <trkpt lat="49.02226" lon="2.04576">
        <ele>23</ele>
        <time>2019-07-23T19:41:24Z</time>
      </trkpt>
      <trkpt lat="49.02225" lon="2.0459">
        <ele>23</ele>
        <time>2019-07-23T19:41:33Z</time>
      </trkpt>
      <trkpt lat="49.02221" lon="2.04605">
        <ele>23</ele>
        <time>2019-07-23T19:41:41Z</time>
      </trkpt>
      <trkpt lat="49.02215" lon="2.04616">
        <ele>23</ele>
        <time>2019-07-23T19:41:45Z</time>
      </trkpt>
      <trkpt lat="49.02205" lon="2.04618">
        <ele>23</ele>
        <time>2019-07-23T19:41:53Z</time>
      </trkpt>
      <trkpt lat="49.02196" lon="2.04625">
        <ele>22</ele>
        <time>2019-07-23T19:42:04Z</time>
      </trkpt>
      <trkpt lat="49.02187" lon="2.04632">
        <ele>22</ele>
        <time>2019-07-23T19:42:12Z</time>
      </trkpt>
      <trkpt lat="49.02177" lon="2.04637">
        <ele>22</ele>
        <time>2019-07-23T19:42:21Z</time>
      </trkpt>
      <trkpt lat="49.02169" lon="2.04646">
        <ele>22</ele>
        <time>2019-07-23T19:42:29Z</time>
      </trkpt>
      <trkpt lat="49.0216" lon="2.04655">
        <ele>21</ele>
        <time>2019-07-23T19:42:36Z</time>
      </trkpt>
      <trkpt lat="49.02152" lon="2.04662">
        <ele>21</ele>
        <time>2019-07-23T19:42:42Z</time>
      </trkpt>
      <trkpt lat="49.02144" lon="2.0467">
        <ele>21</ele>
        <time>2019-07-23T19:42:52Z</time>
      </trkpt>
      <trkpt lat="49.02134" lon="2.04676">
        <ele>21</ele>
        <time>2019-07-23T19:43:00Z</time>
      </trkpt>
      <trkpt lat="49.02125" lon="2.04679">
        <ele>21</ele>
        <time>2019-07-23T19:43:07Z</time>
      </trkpt>
      <trkpt lat="49.02116" lon="2.04688">
        <ele>21</ele>
        <time>2019-07-23T19:43:15Z</time>
      </trkpt>
      <trkpt lat="49.02107" lon="2.04695">
        <ele>21</ele>
        <time>2019-07-23T19:43:22Z</time>
      </trkpt>
      <trkpt lat="49.02099" lon="2.04704">
        <ele>21</ele>
        <time>2019-07-23T19:43:29Z</time>
      </trkpt>
      <trkpt lat="49.0209" lon="2.04712">
        <ele>22</ele>
        <time>2019-07-23T19:43:37Z</time>
      </trkpt>
      <trkpt lat="49.02082" lon="2.04719">
        <ele>22</ele>
        <time>2019-07-23T19:43:45Z</time>
      </trkpt>
      <trkpt lat="49.02072" lon="2.04721">
        <ele>22</ele>
        <time>2019-07-23T19:43:53Z</time>
      </trkpt>
      <trkpt lat="49.02062" lon="2.04719">
        <ele>22</ele>
        <time>2019-07-23T19:44:00Z</time>
      </trkpt>
      <trkpt lat="49.02052" lon="2.0472">
        <ele>22</ele>
        <time>2019-07-23T19:44:09Z</time>
      </trkpt>
      <trkpt lat="49.02044" lon="2.04727">
        <ele>22</ele>
        <time>2019-07-23T19:44:19Z</time>
      </trkpt>
      <trkpt lat="49.02035" lon="2.04732">
        <ele>23</ele>
        <time>2019-07-23T19:44:28Z</time>
      </trkpt>
      <trkpt lat="49.02028" lon="2.04742">
        <ele>23</ele>
        <time>2019-07-23T19:44:38Z</time>
      </trkpt>
      <trkpt lat="49.0202" lon="2.0475">
        <ele>24</ele>
        <time>2019-07-23T19:44:44Z</time>
      </trkpt>
      <trkpt lat="49.02013" lon="2.04762">
        <ele>24</ele>
        <time>2019-07-23T19:44:50Z</time>
      </trkpt>
      <trkpt lat="49.02005" lon="2.04771">
        <ele>24</ele>
        <time>2019-07-23T19:44:55Z</time>
      </trkpt>
      <trkpt lat="49.01998" lon="2.04784">
        <ele>25</ele>
        <time>2019-07-23T19:45:01Z</time>
      </trkpt>
      <trkpt lat="49.0199" lon="2.04792">
        <ele>24</ele>
        <time>2019-07-23T19:45:12Z</time>
      </trkpt>
      <trkpt lat="49.01981" lon="2.04797">
        <ele>24</ele>
        <time>2019-07-23T19:45:21Z</time>
      </trkpt>
      <trkpt lat="49.01974" lon="2.04809">
        <ele>24</ele>
        <time>2019-07-23T19:45:32Z</time>
      </trkpt>
      <trkpt lat="49.01965" lon="2.04819">
        <ele>24</ele>
        <time>2019-07-23T19:45:38Z</time>
      </trkpt>
      <trkpt lat="49.01958" lon="2.04831">
        <ele>24</ele>
        <time>2019-07-23T19:45:46Z</time>
      </trkpt>
      <trkpt lat="49.0195" lon="2.04843">
        <ele>22</ele>
        <time>2019-07-23T19:45:52Z</time>
      </trkpt>
      <trkpt lat="49.01942" lon="2.04853">
        <ele>22</ele>
        <time>2019-07-23T19:46:00Z</time>
      </trkpt>
      <trkpt lat="49.01935" lon="2.04863">
        <ele>22</ele>
        <time>2019-07-23T19:46:07Z</time>
      </trkpt>
      <trkpt lat="49.01929" lon="2.04873">
        <ele>22</ele>
        <time>2019-07-23T19:46:12Z</time>
      </trkpt>
      <trkpt lat="49.01921" lon="2.04884">
        <ele>22</ele>
        <time>2019-07-23T19:46:17Z</time>
      </trkpt>
      <trkpt lat="49.01914" lon="2.04894">
        <ele>22</ele>
        <time>2019-07-23T19:46:25Z</time>
      </trkpt>
      <trkpt lat="49.01906" lon="2.04903">
        <ele>21</ele>
        <time>2019-07-23T19:46:34Z</time>
      </trkpt>
      <trkpt lat="49.01896" lon="2.04908">
        <ele>22</ele>
        <time>2019-07-23T19:46:42Z</time>
      </trkpt>
      <trkpt lat="49.0189" lon="2.04918">
        <ele>21</ele>
        <time>2019-07-23T19:46:50Z</time>
      </trkpt>
      <trkpt lat="49.01882" lon="2.04929">
        <ele>21</ele>
        <time>2019-07-23T19:46:58Z</time>
      </trkpt>
      <trkpt lat="49.01876" lon="2.04939">
        <ele>21</ele>
        <time>2019-07-23T19:47:05Z</time>
      </trkpt>
      <trkpt lat="49.01867" lon="2.04946">
        <ele>21</ele>
        <time>2019-07-23T19:47:14Z</time>
      </trkpt>
      <trkpt lat="49.0186" lon="2.04954">
        <ele>21</ele>
        <time>2019-07-23T19:47:19Z</time>
      </trkpt>
      <trkpt lat="49.01854" lon="2.04965">
        <ele>21</ele>
        <time>2019-07-23T19:47:27Z</time>
      </trkpt>
      <trkpt lat="49.01847" lon="2.04977">
        <ele>21</ele>
        <time>2019-07-23T19:47:34Z</time>
      </trkpt>
      <trkpt lat="49.0184" lon="2.04986">
        <ele>20</ele>
        <time>2019-07-23T19:47:41Z</time>
      </trkpt>
      <trkpt lat="49.01834" lon="2.04997">
        <ele>20</ele>
        <time>2019-07-23T19:47:48Z</time>
      </trkpt>
      <trkpt lat="49.01825" lon="2.0501">
        <ele>21</ele>
        <time>2019-07-23T19:47:59Z</time>
      </trkpt>
      <trkpt lat="49.01819" lon="2.05024">
        <ele>22</ele>
        <time>2019-07-23T19:48:06Z</time>
      </trkpt>
      <trkpt lat="49.01812" lon="2.05035">
        <ele>22</ele>
        <time>2019-07-23T19:48:14Z</time>
      </trkpt>
      <trkpt lat="49.01805" lon="2.05047">
        <ele>23</ele>
        <time>2019-07-23T19:48:21Z</time>
      </trkpt>
      <trkpt lat="49.01799" lon="2.05058">
        <ele>23</ele>
        <time>2019-07-23T19:48:28Z</time>
      </trkpt>
      <trkpt lat="49.0179" lon="2.05066">
        <ele>23</ele>
        <time>2019-07-23T19:48:36Z</time>
      </trkpt>
      <trkpt lat="49.01782" lon="2.05074">
        <ele>23</ele>
        <time>2019-07-23T19:48:47Z</time>
      </trkpt>
      <trkpt lat="49.01775" lon="2.05086">
        <ele>23</ele>
        <time>2019-07-23T19:48:54Z</time>
      </trkpt>
      <trkpt lat="49.01768" lon="2.05097">
        <ele>23</ele>
        <time>2019-07-23T19:49:04Z</time>
      </trkpt>
      <trkpt lat="49.01763" lon="2.05109">
        <ele>23</ele>
        <time>2019-07-23T19:49:11Z</time>
      </trkpt>
      <trkpt lat="49.01757" lon="2.05119">
        <ele>23</ele>
        <time>2019-07-23T19:49:16Z</time>
      </trkpt>
      <trkpt lat="49.0175" lon="2.05131">
        <ele>24</ele>
        <time>2019-07-23T19:49:27Z</time>
      </trkpt>
      <trkpt lat="49.01744" lon="2.05142">
        <ele>23</ele>
        <time>2019-07-23T19:49:32Z</time>
      </trkpt>
      <trkpt lat="49.01739" lon="2.05154">
        <ele>23</ele>
        <time>2019-07-23T19:49:38Z</time>
      </trkpt>
      <trkpt lat="49.01731" lon="2.05164">
        <ele>23</ele>
        <time>2019-07-23T19:49:47Z</time>
      </trkpt>
      <trkpt lat="49.01724" lon="2.05174">
        <ele>22</ele>
        <time>2019-07-23T19:49:53Z</time>
      </trkpt>
      <trkpt lat="49.01719" lon="2.05186">
        <ele>22</ele>
        <time>2019-07-23T19:49:58Z</time>
      </trkpt>
      <trkpt lat="49.01714" lon="2.05198">
        <ele>22</ele>
        <time>2019-07-23T19:50:15Z</time>
      </trkpt>
      <trkpt lat="49.01705" lon="2.05211">
        <ele>22</ele>
        <time>2019-07-23T19:50:26Z</time>
      </trkpt>
      <trkpt lat="49.01698" lon="2.05225">
        <ele>22</ele>
        <time>2019-07-23T19:50:32Z</time>
      </trkpt>
      <trkpt lat="49.01691" lon="2.05233">
        <ele>22</ele>
        <time>2019-07-23T19:50:39Z</time>
      </trkpt>
      <trkpt lat="49.01682" lon="2.05244">
        <ele>22</ele>
        <time>2019-07-23T19:50:43Z</time>
      </trkpt>
      <trkpt lat="49.01677" lon="2.05255">
        <ele>21</ele>
        <time>2019-07-23T19:50:50Z</time>
      </trkpt>
      <trkpt lat="49.0167" lon="2.05265">
        <ele>21</ele>
        <time>2019-07-23T19:50:56Z</time>
      </trkpt>
      <trkpt lat="49.01664" lon="2.05277">
        <ele>21</ele>
        <time>2019-07-23T19:51:04Z</time>
      </trkpt>
      <trkpt lat="49.01657" lon="2.05288">
        <ele>21</ele>
        <time>2019-07-23T19:51:10Z</time>
      </trkpt>
      <trkpt lat="49.01651" lon="2.053">
        <ele>21</ele>
        <time>2019-07-23T19:51:19Z</time>
      </trkpt>
      <trkpt lat="49.01645" lon="2.0531">
        <ele>21</ele>
        <time>2019-07-23T19:51:31Z</time>
      </trkpt>
      <trkpt lat="49.0164" lon="2.05322">
        <ele>21</ele>
        <time>2019-07-23T19:51:41Z</time>
      </trkpt>
      <trkpt lat="49.01632" lon="2.05329">
        <ele>21</ele>
        <time>2019-07-23T19:51:47Z</time>
      </trkpt>
      <trkpt lat="49.01624" lon="2.05342">
        <ele>21</ele>
        <time>2019-07-23T19:51:51Z</time>
      </trkpt>
      <trkpt lat="49.01618" lon="2.05352">
        <ele>21</ele>
        <time>2019-07-23T19:51:56Z</time>
      </trkpt>
      <trkpt lat="49.0161" lon="2.05365">
        <ele>21</ele>
        <time>2019-07-23T19:52:06Z</time>
      </trkpt>
      <trkpt lat="49.01603" lon="2.05375">
        <ele>21</ele>
        <time>2019-07-23T19:52:12Z</time>
      </trkpt>
      <trkpt lat="49.01595" lon="2.05381">
        <ele>21</ele>
        <time>2019-07-23T19:52:21Z</time>
      </trkpt>
      <trkpt lat="49.01587" lon="2.05391">
        <ele>21</ele>
        <time>2019-07-23T19:52:29Z</time>
      </trkpt>
      <trkpt lat="49.01581" lon="2.05403">
        <ele>21</ele>
        <time>2019-07-23T19:52:36Z</time>
      </trkpt>
      <trkpt lat="49.01575" lon="2.05413">
        <ele>21</ele>
        <time>2019-07-23T19:52:45Z</time>
      </trkpt>
      <trkpt lat="49.01569" lon="2.05423">
        <ele>21</ele>
        <time>2019-07-23T19:52:56Z</time>
      </trkpt>
      <trkpt lat="49.01564" lon="2.05435">
        <ele>21</ele>
        <time>2019-07-23T19:53:03Z</time>
      </trkpt>
      <trkpt lat="49.01557" lon="2.05445">
        <ele>21</ele>
        <time>2019-07-23T19:53:12Z</time>
      </trkpt>
      <trkpt lat="49.0155" lon="2.05457">
        <ele>21</ele>
        <time>2019-07-23T19:53:18Z</time>
      </trkpt>
      <trkpt lat="49.01544" lon="2.0547">
        <ele>21</ele>
        <time>2019-07-23T19:53:25Z</time>
      </trkpt>
      <trkpt lat="49.01538" lon="2.05482">
        <ele>22</ele>
        <time>2019-07-23T19:53:31Z</time>
      </trkpt>
      <trkpt lat="49.01533" lon="2.05496">
        <ele>22</ele>
        <time>2019-07-23T19:53:38Z</time>
      </trkpt>
      <trkpt lat="49.0153" lon="2.0551">
        <ele>22</ele>
        <time>2019-07-23T19:53:41Z</time>
      </trkpt>
      <trkpt lat="49.01524" lon="2.05522">
        <ele>22</ele>
        <time>2019-07-23T19:53:47Z</time>
      </trkpt>
      <trkpt lat="49.01519" lon="2.05536">
        <ele>22</ele>
        <time>2019-07-23T19:53:55Z</time>
      </trkpt>
      <trkpt lat="49.01512" lon="2.05548">
        <ele>21</ele>
        <time>2019-07-23T19:54:02Z</time>
      </trkpt>
      <trkpt lat="49.01505" lon="2.05559">
        <ele>21</ele>
        <time>2019-07-23T19:54:16Z</time>
      </trkpt>
      <trkpt lat="49.01498" lon="2.05572">
        <ele>21</ele>
        <time>2019-07-23T19:54:22Z</time>
      </trkpt>
      <trkpt lat="49.01492" lon="2.05586">
        <ele>21</ele>
        <time>2019-07-23T19:54:29Z</time>
      </trkpt>
      <trkpt lat="49.01487" lon="2.05599">
        <ele>21</ele>
        <time>2019-07-23T19:54:39Z</time>
      </trkpt>
      <trkpt lat="49.01482" lon="2.05611">
        <ele>20</ele>
        <time>2019-07-23T19:54:48Z</time>
      </trkpt>
      <trkpt lat="49.01474" lon="2.05621">
        <ele>20</ele>
        <time>2019-07-23T19:54:55Z</time>
      </trkpt>
      <trkpt lat="49.01469" lon="2.05634">
        <ele>20</ele>
        <time>2019-07-23T19:55:04Z</time>
      </trkpt>
      <trkpt lat="49.01462" lon="2.05644">
        <ele>20</ele>
        <time>2019-07-23T19:55:09Z</time>
      </trkpt>
      <trkpt lat="49.01457" lon="2.05656">
        <ele>20</ele>
        <time>2019-07-23T19:55:15Z</time>
      </trkpt>
      <trkpt lat="49.01451" lon="2.05667">
        <ele>20</ele>
        <time>2019-07-23T19:55:22Z</time>
      </trkpt>
      <trkpt lat="49.01444" lon="2.0568">
        <ele>20</ele>
        <time>2019-07-23T19:55:28Z</time>
      </trkpt>
      <trkpt lat="49.01436" lon="2.05687">
        <ele>20</ele>
        <time>2019-07-23T19:55:36Z</time>
      </trkpt>
      <trkpt lat="49.01427" lon="2.05693">
        <ele>20</ele>
        <time>2019-07-23T19:55:45Z</time>
      </trkpt>
      <trkpt lat="49.0142" lon="2.05702">
        <ele>20</ele>
        <time>2019-07-23T19:55:52Z</time>
      </trkpt>
      <trkpt lat="49.01406" lon="2.05706">
        <ele>21</ele>
        <time>2019-07-23T19:56:10Z</time>
      </trkpt>
      <trkpt lat="49.01396" lon="2.05714">
        <ele>21</ele>
        <time>2019-07-23T19:56:14Z</time>
      </trkpt>
      <trkpt lat="49.01393" lon="2.05729">
        <ele>22</ele>
        <time>2019-07-23T19:56:24Z</time>
      </trkpt>
      <trkpt lat="49.01396" lon="2.05742">
        <ele>21</ele>
        <time>2019-07-23T19:56:30Z</time>
      </trkpt>
      <trkpt lat="49.01401" lon="2.05754">
        <ele>22</ele>
        <time>2019-07-23T19:56:39Z</time>
      </trkpt>
      <trkpt lat="49.01405" lon="2.05767">
        <ele>22</ele>
        <time>2019-07-23T19:56:53Z</time>
      </trkpt>
      <trkpt lat="49.01409" lon="2.0578">
        <ele>23</ele>
        <time>2019-07-23T19:57:04Z</time>
      </trkpt>
      <trkpt lat="49.01413" lon="2.05792">
        <ele>23</ele>
        <time>2019-07-23T19:57:09Z</time>
      </trkpt>
    </trkseg>
  </trk>
</gpx>